COOLWX HOME

EXTREME HOME

OTHER COOLWX PAGES
    Coolwx Hit Images
    Extreme Weather
    Global Forecasts
    Hourly Model Forecasts
    Mesoscale Analysis
    Obs. Weather Database
    Offshore Weather Data
    Precipitation Type
    Record Breakers
    U.S. Weather Statistics


EXTREME WX CATEGORIES
   CITIES & VALUES:
       Temperature
       Dewpoint
       Heat Index
       Wind
       Wind Chill
       Pressure
       Pressure Change
       Precip Type/Intensity
       Precip Amount
       Thunderstorm
       Blizzard
       Visibility
       Astronomical
       Other
       Multiple
       Unknown
   CITIES & FULL REPORTS:
       Temperature
       Dewpoint
       Heat Index
       Wind
       Wind Chill
       Pressure
       Pressure Change
       Precip Type/Intensity
       Precip Amount
       Thunderstorm
       Blizzard
       Visibility
       Astronomical
       Other
       Multiple
   USA & WORLD PLOTS:
       Temperature
       Dewpoint
       Wind
       Wind Chill & Heat Index
       Pressure
       Pressure Change
       Precip Type/Intensity
       Precip Amount
       Thunderstorm
       Blizzard
       Visibility
       Astronomical
       Other
       Unknown
   REPEAT OFFENDERS:
       Today
       Yesterday
       This month
       This year
       Since 2007
   RSS:
       Feed
   ARCHIVE:
       2024061710
       2024061709
       2024061706
       2024061703
       2024061700
       2024061621
       2024061618
       2024061615
       2024061612
       2024061609
       2024061606
       2024061603
       2024061600
       2024061521
       2024061518
       2024061515
       2024061512
       2024061509
       2024061506
       2024061503
       2024061500
       2024061421
       2024061418
       2024061415

CONTACT
       Bob Hart
       (rhart at fsu.edu)

Extreme & Weird Weather of the World - Archive for 2024051915
Currently using 36946 observations from 5205 unique global stations over the past 3 hours.
Last Updated: Sun May 19 15:46:34 UTC 2024



1 station reporting temperature -55°C or colder

0 stations reporting temperature -50°C to -54°C

0 stations reporting temperature -45°C to -49°C

0 stations reporting temperature -40°C to -44°C

0 stations reporting temperature 55°C or warmer

0 stations reporting temperature 50°C to 54°C

2 stations reporting temperature 45°C to 49°C

49 stations reporting temperature 40°C to 44°C


2 stations reporting dewpoint 30°C or greater

21 stations reporting dewpoint 28-29°C

244 stations reporting dewpoint 26-27°C


0 stations reporting wind gusts 70kt or stronger

0 stations reporting wind gusts 60-69kt

1 station reporting wind gusts 50-59kt

7 stations reporting wind gusts 40-49kt


1 station reporting (sustained) wind chill of -55°C or colder

0 stations reporting (sustained) wind chill of -50°C to -54°C

1 station reporting (sustained) wind chill of -45°C to -49°C

0 stations reporting (sustained) wind chill of -40°C to -44°C


0 stations reporting heat index of 55°C or hotter

1 station reporting heat index of 50°C to 54°C

17 stations reporting heat index of 45°C to 49°C

126 stations reporting heat index of 40°C to 44°C


0 stations reporting sea level pressure < 950mb

0 stations reporting sea level pressure 950mb - 959mb

0 stations reporting sea level pressure 960mb - 969mb

2 stations reporting sea level pressure 970mb - 979mb

  • PACX: UNKNOWN, [974.1mb, 28.76in]    
    PACX 191456Z AUTO 04008KT 10SM CLR 06/M02 A2987 RMK AO2 SLP741 T00561017 56005
    PACX 191356Z AUTO 05008KT 10SM CLR 04/M02 A2987 RMK AO2 SLP743 T00441022
    PACX 191256Z AUTO 02009KT 10SM CLR 05/M02 A2987 RMK AO2 SLP744 T00501017
    PACX 191156Z AUTO 04006KT 10SM CLR 07/M03 A2988 RMK AO2 SLP746 T00721028 10139 20061 51001
  • PFTO: UNKNOWN, [970.9mb, 28.66in]    
    PFTO 191456Z AUTO 00000KT 10SM CLR 06/M04 A2971 RMK AO2 SLP709 T00561039 58007 $
    PFTO 191356Z AUTO 00000KT 10SM CLR 01/M02 A2972 RMK AO2 SLP714 T00061022 FZRANO $
    PFTO 191256Z AUTO 00000KT 10SM FEW100 00/M03 A2973 RMK AO2 SLP716 T00001028 FZRANO $
    PFTO 191156Z AUTO 00000KT 10SM CLR 00/M03 A2974 RMK AO2 SLP718 T00001028 10128 21006 56006 FZRANO $
2 stations reporting sea level pressure 980mb - 989mb

  • SCRM: Teniente Rodolfo, Antarctica [983mb, 29.02in]    
    SCRM 191500Z 27024KT 9999 BKN045 M01/M05 Q0983 NOSIG
    SCRM 191400Z 26022KT 9999 BKN030 M01/M05 Q0983 NOSIG
    SCRM 191300Z 26027KT 9999 BKN030 M01/M06 Q0983 NOSIG
    SCRM 191200Z 26026KT 9999 BKN020 M01/M03 Q0983 NOSIG
  • NZCM: Williams Field, Antarctica [982.6mb, 29.01in]    
    NZCM 191455Z AUTO 08007KT 9999 CLR M24/M28 A2900 RMK AO2 SLP828 T12351276 53002 $
    NZCM 191355Z AUTO 07008KT 9999 CLR M24/M28 A2900 RMK AO2 SLP827 T12401279 $
    NZCM 191255Z AUTO 07007KT 9999 BKN044 M24/M28 A2900 RMK AO2 SNE1223 SLP826 T12451282 $
    NZCM 191223Z AUTO 06006KT 9999 OVC050 M25/M29 A2900 RMK AO2 SNE1223 SLP826 T12531292 $
    NZCM 191155Z AUTO 00000KT 9999 -SN OVC055 M24/M28 A2900 RMK AO2 SNB1127 SLP826 T12431280 11207 21256 412031266 51008 $
1 station reporting sea level pressure > 1055mb

  • KCWN: Cheyenne Moutain, CO, United States [1099.7mb, 32.47in]    
    KCWN 191355Z AUTO 15007KT 10SM CLR 15/07 A3000 RMK AO2 SLP997 T01490072 $
0 stations reporting sea level pressure 1050-1054mb

0 stations reporting sea level pressure 1045-1049mb

2 stations reporting sea level pressure 1040-1044mb

  • SLLP: La Paz / Alto, Bolivia [1042mb, 30.76in]    
    SLLP 191500Z 27006KT 9999 FEW015 11/M01 Q1042
    SLLP 191400Z 24006KT 9999 FEW013 09/M03 Q1042
    SLLP 191300Z VRB02KT 9999 FEW013 08/00 Q1041
    SLLP 191200Z VRB02KT 9999 FEW010 05/01 Q1041
  • SPJL: Juliaca, Peru [1040mb, 30.70in]    
    SPJL 191400Z VRB03KT CAVOK 10/M04 Q1040 RMK PP000
    SPJL 191300Z 32003KT 270V350 CAVOK 06/M02 Q1040 RMK PP000
8 stations reporting sea level pressure 1035-1039mb

  • SLOR: Oruro, Bolivia [1039mb, 30.68in]    
    SLOR 191500Z 34004KT 9999 NSC 12/02 Q1038
    SLOR 191400Z VRB02KT 9999 NSC 08/01 Q1039
    SLOR 191300Z 34003KT 9999 NSC 04/M01 Q1039
    SLOR 191200Z 36003KT 8000 NSC M02/M05 Q1038
  • SPHY: Andahuayla, Peru [1038mb, 30.65in]    
    SPHY 191500Z 02005KT 9999 SCT012 15/08 Q1038 RMK BIRD HAZARD RWY03/21 PP000
    SPHY 191400Z 25003KT 9999 SCT012 13/07 Q1038 RMK BIRD HAZARD RWY03/21 PP000
    SPHY 191300Z 21003KT 9999 SCT012 09/06 Q1038 RMK BIRD HAZARD RWY03/21 PP000
    SPHY 191200Z 00000KT 9999 SCT012 OVC060 07/05 Q1037 RMK TX18.8/TN1.8 BIRD HAZARD RWY03/21 PP000
  • SPJJ: Jauja, Peru [1037mb, 30.62in]    
    SPJJ 191500Z VRB03KT 9999 SCT040 16/08 Q1037 RMK PP000
    SPJJ 191400Z VRB03KT 9999 FEW035 14/07 Q1037 RMK PP000
    SPJJ 191300Z 34005KT 9999 FEW050 SCT100 10/07 Q1037 RMK PP000
    SPJJ 191200Z 33002KT 9999 FEW040 06/06 Q1036 RMK TN5.0 PP000
  • SPJL: Juliaca, Peru [1039mb, 30.68in]    
    SPJL 191500Z VRB03KT CAVOK 12/M03 Q1039 RMK PP000
    SPJL 191200Z 00000KT CAVOK 02/M03 Q1036 RMK TNM3.2 PP000
  • SPZO: Cuzco, Peru [1037mb, 30.62in]    
    SPZO 191530Z 04004KT 330V100 9999 SCT060 16/05 Q1036 NOSIG RMK BIRD HAZARD RWY 10/28
    SPZO 191500Z 02003KT 310V100 9999 SCT060 16/05 Q1036 NOSIG RMK BIRD HAZARD RWY 10/28 PP000
    SPZO 191430Z VRB03KT 9999 SCT060 15/05 Q1037 NOSIG RMK BIRD HAZARD RWY 10/28
    SPZO 191400Z VRB02KT 9999 SCT060 15/07 Q1037 NOSIG RMK BIRD HAZARD RWY 10/28 PP000
    SPZO 191330Z VRB03KT 9999 SCT060 13/06 Q1037 NOSIG RMK BIRD HAZARD RWY 10/28
    SPZO 191300Z 09003KT 040V180 9999 FEW050 SCT100 12/06 Q1037 NOSIG RMK BIRD HAZARD RWY 10/28 PP000
    SPZO 191230Z 08003KT 040V130 9999 FEW046 SCT100 10/06 Q1037 NOSIG RMK BIRD HAZARD RWY 10/28
    SPZO 191200Z VRB02KT 9999 FEW046 SCT100 09/05 Q1036 NOSIG RMK TN4.0 BIRD HAZARD RWY 10/28 PP000
  • CYHK: Gjoa Haven Airport, Canada [1036.1mb, 30.59in]    
    CYHK 191500Z 06009KT 15SM OVC020 M00/M02 A3057 RMK SC8 SLP359
    CYHK 191414Z 06009KT 15SM OVC020 M00/M01 A3057 RMK SC8 SLP359
    CYHK 191400Z 05008KT 15SM -SN OVC020 M00/M01 A3057 RMK SC8 SLP359
    CYHK 191300Z 03008KT 10SM -SN OVC020 M01/M01 A3057 RMK SC8 SLP360
    CYHK 191200Z 03007KT 10SM -SN OVC020 M01/M02 A3058 RMK SC8 SLP361
    CYHK 191149Z AUTO 03008KT 9SM OVC020 M02/M02 A3056 RMK SLP357
  • CYRB: Resolute, NT, Canada [1036.2mb, 30.59in]    
    CYRB 191500Z 21002KT 10SM FEW002 OVC015 M07/M08 A3056 RMK ST1SC7 SLP358
    CYRB 191400Z 15003KT 4SM BR FEW002 BKN018 M08/M09 A3056 RMK ST1SC5 ST TR SLP359
    CYRB 191300Z 17004KT 3SM R35/1400V1600FT/N BR SCT002 BKN017 M09/M10 A3056 RMK ST3SC2 SLP361
    CYRB 191200Z VRB02KT 10SM FEW002 M07/M08 A3057 RMK ST2 SLP362
  • CYYH: Spence Bay Airport, Canada [1036.4mb, 30.60in]    
    CYYH 191500Z 18003KT 15SM FEW009 OVC018 M01/M04 A3058 RMK SF1SC8 SF TR SLP360
    CYYH 191400Z VRB02KT 15SM FEW009 OVC017 M01/M04 A3058 RMK ST1SC7 SLP362
    CYYH 191300Z 12003KT 15SM FEW006 FEW009 OVC017 M01/M04 A3059 RMK ST1ST1SC8 ST TR ST TR SLP364
    CYYH 191200Z 05003KT 040V100 15SM FEW007 FEW009 OVC016 M02/M04 A3059 RMK SF1ST1SC8 SF TR ST TR SLP363


0 stations reporting 3-hourly pressure fall of 10mb or greater

0 stations reporting 3-hourly pressure fall of 5mb to 9.9mb

1 station reporting 3-hourly pressure rise of 5mb to 9.9mb

  • CWKH: Malahat, Canada [5.0mb]
    CWKH 191200Z AUTO 05/03 RMK AO1 8PAST HR 2010 SLP201 P0003 T00490033 50050
0 stations reporting 3-hourly pressure rise of 10mb or greater


1 station reporting heavy snow

  • USDA: Sabetta, Russia
    USDA 191200Z 15013MPS 0500 0400NE R04/0500U +SN BLSN VV016 M05/M06 Q1003 R04/550242 NOSIG RMK QFE751/1001
    USDA 191300Z 15013MPS 0800 R04/0800D +SN BLSN VV009 M05/M06 Q1002 R04/550242 NOSIG RMK QFE750/1000
    USDA 191330Z 14013MPS 0650 0600NE R04/0650N +SN BLSN VV008 M05/M06 Q1001 R04/550242 NOSIG RMK QFE749/0999
    USDA 191400Z 14013MPS 0750 R04/0750N +SN BLSN VV009 M05/M06 Q1000 R04/550242 NOSIG RMK QFE749/0999
0 stations reporting any sleet

1 station reporting any freezing rain

  • PALU: Cape Lisburne, Cape Lisburne LRRS Airport, AK, United States
    PALU 191146Z AUTO 08006KT 1/4SM -FZRA FZFG VV003 01/01 A2997
    PALU 191146Z AUTO 08006KT 1/4SM -FZRA FZFG VV003 01/01 A2997 RMK AO2 SLP150
    PALU 191155Z AUTO 09007KT 1 1/2SM -FZRA BR OVC002 01/01 A2997
    PALU 191155Z AUTO 09007KT 1 1/2SM -FZRA BR OVC002 01/01 A2997 RMK AO2 SNB1043E1105 SLP148 P0000 60000 T00120013 10024 20011 57004
    PALU 191226Z AUTO 09007KT 1/4SM -FZRA FZFG VV003 01/01 A2997
    PALU 191226Z AUTO 09007KT 1/4SM -FZRA FZFG VV003 01/01 A2997 RMK AO2 SLP147
    PALU 191406Z AUTO 09007KT 1/2SM -FZRA FZFG VV003 01/01 A2997
    PALU 191406Z AUTO 09007KT 1/2SM -FZRA FZFG VV003 01/01 A2997 RMK AO2 SLP147
    PALU 191446Z AUTO 10006KT 1/4SM -FZRA FZFG VV002 01/01 A2995
    PALU 191446Z AUTO 10006KT 1/4SM -FZRA FZFG VV002 01/01 A2995 RMK AO2 SLP143
    PALU 191455Z AUTO 09006KT M1/4SM -FZRA FZFG VV002 01/01 A2995
    PALU 191455Z AUTO 09006KT M1/4SM -FZRA FZFG VV002 01/01 A2995 RMK AO2 SLP142 P0000 60000 T00080010 57006
21 stations reporting heavy rain

  • EBBL: Kleine Brogel, Belgium
    EBBL 191510Z AUTO 32007KT 6000 +RA BKN035/// BKN056/// BKN065/// ///// Q1010 WHT
    EBBL 191511Z AUTO 32007KT 4600 +RA BKN035/// BKN056/// BKN065/// ///// Q1010 GRN
    EBBL 191514Z AUTO 32006KT 3500 +RA BKN035/// BKN056/// BKN065/// ///// Q1010 YLO
  • ESUT: Hemavan-Gierevarto, Sweden
    ESUT 191150Z AUTO 29022G35KT 1800 +RA FEW023/// SCT045/// 00/M01 Q1009 RERA
  • ETAD: Spangdahlem, Germany
    ETAD 191427Z 03013G19KT 8000 VCTS +RA FEW014 BKN027 BKN031 BKN040CB 15/10 A2984 RMK AO2A RAB20 TSE27 CIG 027V040 BKN027 V FEW SLP097 $
    ETAD 191501Z 26003KT 3200 +RA BKN024 OVC047 14/10 A2983 RMK AO2A VIS 1400V6000 LTG DSNT E TSE01 SLP093 $
  • ETOU: Wiesbaden, Germany
    ETOU 191522Z AUTO 02009KT 9999 +RA FEW027 BKN045 18/12 A2983 RMK AO2 RAB22 SLP104 $
    ETOU 191532Z AUTO 15003KT 9000 +RA FEW005 FEW019 BKN027 BKN034 BKN041 OVC048 17/12 A2982 RMK AO2 RAB22 CIG 027V045 BKN027 V FEW SLP101 $
    ETOU 191537Z AUTO 17007KT 3600 +RA FEW005 SCT027 BKN037 BKN048 17/12 A2982 RMK AO2 VIS 3600V9999 RAB22 SLP101 $
  • KAHQ: Wahoo, NE, United States
    KAHQ 191235Z AUTO 04004KT 5SM +RA BKN035 BKN049 OVC070 12/10 A3008 RMK AO2 P0009 T01150096
    KAHQ 191335Z AUTO 13004KT 7SM +RA SCT025 BKN095 OVC110 12/11 A3005 RMK AO2 P0003 T01200105
  • KBTA: Blair, NE, United States
    KBTA 191315Z AUTO 00000KT 2 1/2SM +RA SCT038 BKN055 OVC080 13/08 A3008 RMK AO2 VIS 1V5 LTG DSNT E SE AND NW P0005 T01250083
  • KD73: Monroe, GA, United States
    KD73 191415Z AUTO 04007KT 020V080 2SM +RA BR BKN005 OVC009 18/ A2997 RMK AO2 LTG DSNT SE P0015 T0184////
    KD73 191515Z AUTO 06007KT 3SM +RA BR SCT006 BKN048 OVC080 18/ A2998 RMK AO2 LTG DSNT SE AND S P0011 T0184////
  • KEBA: Elberton, GA, United States
    KEBA 191415Z AUTO 06004KT 2 1/2SM +RA BR SCT006 BKN014 OVC050 19/19 A2997 RMK AO2 LTG DSNT SW P0006 T01860186
  • KHBV: Hebbronville, Jim Hogg County Airport, TX, United States
    KHBV 191150Z AUTO 17003KT 1 3/4SM +RA BKN007 BKN011 BKN019 25/24 A2993 RMK AO2 T02460236
    KHBV 191210Z AUTO 15004KT 1 1/2SM +RA BKN007 25/24 A2994 RMK AO2 T02450236
    KHBV 191230Z AUTO 16005KT 1 1/4SM +RA OVC003 25/24 A2995 RMK AO2 T02450237
    KHBV 191250Z AUTO 16004KT 1 1/2SM +RA OVC005 25/24 A2995 RMK AO2 T02470240
    KHBV 191330Z AUTO 16007KT 3SM +RA 26/24 A2996 RMK AO2 SKY OBSCURED T02550236
    KHBV 191350Z AUTO 15006KT 3SM +RA 26/24 A2996 RMK AO2 SKY OBSCURED T02610238
  • KIIY: Washington, GA, United States
    KIIY 191515Z AUTO 01005KT 1 1/2SM +RA BR BKN006 BKN010 OVC031 18/18 A2998 RMK AO2 VIS 3/4V2 1/2 LTG DSNT S P0024 T01840181
    KIIY 191535Z AUTO 05005KT 2 1/2SM +RA BR BKN008 BKN031 OVC070 18/18 A2998 RMK AO2 VIS 1 1/4V5 LTG DSNT S P0032 T01840182
  • KMLE: Omaha, Millard Airport, NE, United States
    KMLE 191255Z AUTO 35003KT 5SM +RA SCT060 BKN080 OVC100 12/09 A3010 RMK AO2 LTG DSNT E SE AND NW P0007 T01210091
  • KNRN: Norton, KS, United States
    KNRN 191435Z AUTO 27005KT 2SM +RA BKN032 BKN048 OVC060 15/12 A3001 RMK AO2
  • KPUJ: Dallas, GA, United States
    KPUJ 191155Z AUTO 34006KT 1 1/2SM +RA OVC003 17/17 A2995 RMK AO2
    KPUJ 191215Z AUTO 35006KT 2 1/2SM +RA OVC003 17/17 A2996 RMK AO2
    KPUJ 191255Z AUTO 35006KT 2SM +RA OVC003 17/17 A2997 RMK AO2
    KPUJ 191315Z AUTO 36005KT 2 1/2SM +RA OVC003 17/17 A2998 RMK AO2 LTG DSNT E
    KPUJ 191335Z AUTO 01003KT 5SM +RA OVC003 18/18 A2998 RMK AO2
    KPUJ 191355Z AUTO 35003KT 5SM +RA OVC003 18/18 A2998 RMK AO2 LTG DSNT E
    KPUJ 191415Z AUTO 01003KT 7SM +RA BKN005 OVC011 18/18 A2998 RMK AO2 LTG DSNT E
  • KU52: Beaver, UT, United States
    KU52 191335Z AUTO 00000KT 10SM +RA CLR 08/01 A3001 RMK AO2
    KU52 191355Z AUTO 32004KT 10SM +RA CLR 10/02 A3001 RMK AO2
    KU52 191515Z AUTO 34003KT 10SM +RA SCT110 17/03 A3001 RMK AO2
  • LETL: Tereul, Spain
    LETL 191330Z AUTO 24012G29KT 200V280 7000 +RA NSC 14/07 Q1010
  • LIBP: Pescara, Italy
    LIBP 191350Z AUTO 07006KT 050V130 7000 +RA OVC066/// 20/20 Q1012
  • NGTA: Tarawa, Kiribati
    NGTA 191440Z 08011G23KT 1500 +SHRA BKN015 27/26 Q1008
  • RJNY: Shizuhama Ab, Japan
    RJNY 191447Z 04008KT 010V070 2500 +SHRA BR SCT015 BKN025 OVC045 15/14 Q1016 RMK 3CU015 7CU025 8SC045 A3003 VIS W 1800M
  • SBFN: Fernando De Noronha, Brazil
    SBFN 191157Z AUTO 09009KT 050V120 3700 +RA BKN017 BKN021 BKN033 25/24 Q1014
    SBFN 191200Z AUTO 10009KT 050V120 3800 +RA BKN017 BKN021 BKN033 25/24 Q1014
  • VQPR: Paro Airport, Bhutan
    VQPR 191200Z 32008KT 8000 +RA SCT020 OVC055 14/12 Q1018
    VQPR 191230Z 34007KT 7000 +RA FEW005 BKN030 OVC045 15/14 Q1019
  • YPCC: Cocos Island Airport, Christmas Island
    YPCC 191159Z AUTO 12010KT 2500 +RA ////// 27/26 Q1009 RF00.4////./
    YPCC 191159Z AUTO 12010KT 2500 +RA ////// 27/26 Q1009 RF00/4//////
    YPCC 191200Z AUTO 12010KT 2800 +RA ////// 27/26 Q1009 RF00.4////./
    YPCC 191200Z AUTO 12010KT 2800 +RA ////// 27/26 Q1009 RF00/4//////
14 stations reporting unknown precipitation type

  • K1K8: UNKNOWN,
    K1K8 191215Z AUTO 00000KT 3SM UP BR CLR 19/19 A2999 RMK AO2
  • KHRF: Hamilton, MT, United States
    KHRF 191255Z AUTO 21006KT 7SM UP BKN024 BKN036 OVC060 05/03 A2995 RMK AO2
    KHRF 191255Z AUTO 21006KT 7SM UP BKN024 BKN036 OVC060 05/03 A2995 RMK AO2 Hamilton
  • KIZA: Santa Ynez, Santa Ynez Airport, CA, United States
    KIZA 191515Z AUTO 24003KT 9SM UP OVC010 12/11 A3006 RMK AO2
  • KMLP: Mullan Pass, Mullan Pass Vor, ID, United States
    KMLP 191432Z AUTO VRB04KT 1/4SM UP FZFG VV001 M02/M02 A2994 RMK AO2 UPB27 P0000 T10171022 $
  • PADL: Dillingham, Dillingham Airport, AK, United States
    PADL 191221Z AUTO 36009KT 2SM UP BR OVC011 03/02 A2977
    PADL 191221Z AUTO 36009KT 2SM UP BR OVC011 03/02 A2977 RMK AO2 RAE01UPB01 P0000
    PADL 191243Z AUTO 01008KT 1 3/4SM UP BR BKN009 OVC013 03/02 A2978
    PADL 191243Z AUTO 01008KT 1 3/4SM UP BR BKN009 OVC013 03/02 A2978 RMK AO2 RAE01UPB01 CIG 007V012 P0000
    PADL 191256Z AUTO 36006KT 1 1/2SM UP BR OVC009 03/02 A2978
    PADL 191256Z AUTO 36006KT 1 1/2SM UP BR OVC009 03/02 A2978 RMK AO2 RAE01UPB01 CIG 006V013 SLP088 P0000 T00280022
    PADL 191313Z AUTO 01008KT 1 1/2SM UP BR BKN005 OVC011 03/02 A2979
    PADL 191313Z AUTO 01008KT 1 1/2SM UP BR BKN005 OVC011 03/02 A2979 RMK AO2 P0000
    PADL 191334Z AUTO 36006KT 3/4SM UP BR OVC005 03/02 A2979
    PADL 191334Z AUTO 36006KT 3/4SM UP BR OVC005 03/02 A2979 RMK AO2 P0000
    PADL 191356Z AUTO 35005KT 1SM UP BR OVC005 02/02 A2980
    PADL 191356Z AUTO 35005KT 1SM UP BR OVC005 02/02 A2980 RMK AO2 CIG 003V007 SLP094 P0000 T00220022 FZRANO
  • PAJZ: Koliganek, AK, United States
    PAJZ 191326Z AUTO 33004KT 2 1/2SM UP BR SCT030 BKN037 OVC049 03/03 A2984 RMK AO2 UPB06 P0000 $
    PAJZ 191336Z AUTO 33003KT 3SM UP BR SCT037 OVC049 03/03 A2984 RMK AO2 UPB06 P0000 $
  • PAKP: Anaktuvuk Pass, Anaktuvuk Pass Airport, AK, United States
    PAKP 191314Z AUTO 02007KT 3/4SM UP BR OVC001 M05/M06 A2988 RMK AO2 UPB12SNE12 P0000 FZRANO
    PAKP 191324Z AUTO 02008KT 1/4SM UP FZFG OVC001 M05/M06 A2988 RMK AO2 UPB12SNE12 P0000 FZRANO
    PAKP 191356Z AUTO 03007KT 1/4SM UP FZFG OVC001 M04/M05 A2987 RMK AO2 UPB12SNE12 SLP153 P0000 T10441050 FZRANO
  • PAOT: Kotzebue, Ralph Wien Memorial Airport, AK, United States
    PAOT 191453Z 05003KT 10SM UP SCT043 BKN055 OVC110 00/00 A2980
    PAOT 191453Z 05003KT 10SM UP SCT043 BKN055 OVC110 00/00 A2980 RMK AO2 UPB36 SLP090 P0001 60001 T00000000 55010 $
  • PAOU: Nelson Lagoon, AK, United States
    PAOU 191332Z AUTO 31014KT 2 1/2SM UP BR OVC005 02/01 A2995 RMK AO2 UPB32 FZRANO PNO $
    PAOU 191356Z AUTO 31015KT 4SM UP BR OVC005 02/01 A2996 RMK AO2 UPB32 CIG 003V007 SLP144 T00170011 FZRANO PNO $
    PAOU 191434Z AUTO 30013KT 1SM UP BR OVC005 02/01 A2997 RMK AO2 UPE00B26 FZRANO PNO $
    PAOU 191445Z AUTO 32013KT 1 1/4SM UP BR OVC003 02/01 A2997 RMK AO2 UPE00B26 FZRANO PNO $
    PAOU 191456Z AUTO 32014KT 1 1/4SM UP BR OVC003 02/01 A2997 RMK AO2 UPE00B26 SLP149 6//// T00170011 53009 FZRANO PNO $
  • PAPH: Port Heiden, Port Heiden Airport, AK, United States
    PAPH 191222Z AUTO 24022G27KT 2 1/2SM UP BR BKN004 OVC009 02/01 A2984 RMK AO2 PK WND 24027/1222 VIS 2 1/2V4 UPB09 P0000 FZRANO $
    PAPH 191256Z AUTO 24022G27KT 2 1/2SM UP BR OVC004 02/02 A2985 RMK AO2 PK WND 25029/1238 UPB09 SLP109 P0000 T00220017 FZRANO $
    PAPH 191312Z AUTO 24021G27KT 1 3/4SM UP BR OVC004 02/02 A2985 RMK AO2 PK WND 25027/1303 P0000 FZRANO $
    PAPH 191417Z AUTO 25020G27KT 1 1/4SM UP BR OVC004 02/02 A2988 RMK AO2 PK WND 26027/1415 RAE07UPB07 P0000 FZRANO $
    PAPH 191428Z AUTO 25018G24KT 1SM UP BR OVC004 02/02 A2989 RMK AO2 PK WND 26027/1415 RAE07UPB07 P0000 FZRANO $
    PAPH 191456Z AUTO 26019G24KT 1 1/2SM UP BR OVC004 02/02 A2990 RMK AO2 PK WND 26027/1415 RAE07UPB07 CIG 003V007 SLP125 P0000 60000 T00220022 53022 FZRANO $
  • PAPO: Point Hope, Point Hope Airport, AK, United States
    PAPO 191256Z AUTO 35013KT 1/2SM UP FZFG OVC003 M01/M02 A2993 RMK AO2 UPB22SNE22 SLP134 P0000 T10111017 FZRANO
  • PAQT: Nuiqsut, Nuiqsut Airport, AK, United States
    PAQT 191300Z AUTO 07017KT 6SM UP BR OVC009 M02/M04 A3010 RMK AO2 UPB00SNE00 P0000 T10221039 TSNO $
    PAQT 191353Z AUTO 07020G25KT 5SM UP BR OVC009 M02/M04 A3010 RMK AO2 UPB00E13B49SNE00B13E49 SLP192 P0000 T10221039 TSNO $
  • PFCL: Clarks Point, AK, United States
    PFCL 191149Z AUTO 04005KT 1/2SM UP BKN004 OVC035 02/ A2975 RMK AO2 UPB46 CIG 002V007 P0000 FZRANO TSNO
  • PPIZ: Point Lay, Point Lay LRRS Airport, AK, United States
    PPIZ 191202Z AUTO 05018KT 2SM UP BR OVC003 M02/M02 A2999 RMK AO2 VIS 1 1/4V5 UPB1157SNE1157 P0000 FZRANO
    PPIZ 191256Z AUTO 05019KT 4SM UP BR OVC003 M02/M03 A2998 RMK AO2 UPB1157E03B56SNE1157B37E56 SLP155 P0000 T10221028 FZRANO
    PPIZ 191337Z AUTO 06017KT 1/2SM UP FZFG OVC003 M02/M02 A2998 RMK AO2 UPE1258B37SNB28E37 P0000 FZRANO
    PPIZ 191343Z AUTO 05020KT 1SM UP BR OVC003 M02/M02 A2998 RMK AO2 UPE1258B37SNB28E37 P0000 FZRANO
    PPIZ 191352Z AUTO 05019KT 1 1/4SM UP BR OVC003 M02/M02 A2998 RMK AO2 UPE1258B37SNB28E37 P0000 FZRANO
    PPIZ 191356Z AUTO 06018KT 1 1/4SM UP BR OVC003 M02/M02 A2998 RMK AO2 UPE1258B37SNB28E37 SLP156 P0000 T10221022 FZRANO
    PPIZ 191414Z AUTO 06018KT 3SM UP BR OVC003 M02/M02 A2998 RMK AO2 SNB1359E08 P0000 FZRANO
    PPIZ 191446Z AUTO 06021KT 1 1/4SM UP BR OVC003 M02/M03 A2997 RMK AO2 UPE15B44SNB1359E08B25E44 P0000 FZRANO
    PPIZ 191450Z AUTO 06018KT 3SM UP BR OVC003 M02/M03 A2997 RMK AO2 UPE15B44SNB1359E08B25E44 P0000 FZRANO


0 stations reporting ice accretion in the past 1 hour

0 stations reporting ice accretion in the past 3 hours

0 stations reporting ice accretion in the past 6 hours

0 stations reporting hourly snow depth increase (SNINCR) of 3+"

0 stations reporting hourly snow depth increase (SNINCR) of 2"

0 stations reporting hourly snow depth increase (SNINCR) of 1"

0 stations reporting hourly (melted) precip total of 3" or greater

0 stations reporting hourly (melted) precip total of 2-2.99"

0 stations reporting hourly (melted) precip total of 1-1.99"

1 station reporting hourly (melted) precip total of 0.5-0.99"

  • KMCK: McCook, McCook Municipal Airport, NE, United States [0.73in]
    KMCK 191151Z AUTO 36015G21KT 2SM +TSRA BR SCT034 OVC100 13/13 A2990 RMK AO2 LTG DSNT ALQDS P0053
    KMCK 191153Z AUTO 01014G21KT 2 1/2SM +TSRA BR SCT034 OVC100 13/13 A2990 RMK AO2 LTG DSNT ALQDS SLP109 P0054 60083 70084 T01330133 10161 20128 51002
    KMCK 191253Z AUTO 13013KT 2 1/2SM +TSRA BR SCT036 BKN050 OVC090 14/14 A2992 RMK AO2 LTG DSNT ALQDS SLP118 P0073 T01440139
0 stations reporting 3 or 6 hourly (melted) precip total of 5" or greater

0 stations reporting 3 or 6 hourly (melted) precip total of 4-4.99"

0 stations reporting 3 or 6 hourly (melted) precip total of 3-3.99"

0 stations reporting 3 or 6 hourly (melted) precip total of 2-2.99"


0 stations reporting tornado, funnel cloud or waterspout

0 stations reporting mammatus cloud

5 stations reporting hail

  • EDDC: Dresden-Klotzsche, Germany [unreported size]
    EDDC 191250Z AUTO VRB02KT 9999 VCSH FEW043 FEW///CB 18/11 Q1010 RETSGR NOSIG
  • EDDR: Saarbruecken / Ensheim, Germany [unreported size]
    EDDR 191250Z AUTO 29008KT 7000 TSGRRA FEW023 BKN///CB 15/12 Q1012 NOSIG
    EDDR 191320Z AUTO 22003KT 170V300 7000 +TSGRRA FEW012 BKN///CB 13/11 Q1011 NOSIG
  • EDDV: Hannover, Germany [unreported size]
    EDDV 191520Z AUTO 13007KT 090V170 9999 +TSGRRA FEW030 SCT037 BKN044 BKN///CB 17/11 Q1008
  • EDDW: Bremen, Germany [unreported size]
    EDDW 191320Z AUTO 04007KT 360V100 9999 +TSGRRA FEW032 SCT045 SCT///CB 19/13 Q1009
  • VVVD: Vo Dat, Vietnam [unreported size]
    VVVD 191400Z AUTO VRB02KT 9999 -RA SCT013/// BKN024/// 26/26 Q1005 RETSGR NOSIG
0 stations reporting thundersnow

0 stations reporting thundersleet

0 stations reporting thunder with freezing rain

90 stations reporting thunder with rain

  • CZEM: Eastmain River Airport, Canada
    CZEM 191433Z 15008KT 10SM -TSRA BKN060 BKN110 17/15 A2963 RMK RA2SC4AS1 EMBD CB / TS MVNG W-E SLP036 DENSITY ALT 700FT
  • EDAH: Heringsdorf, Germany
    EDAH 191520Z 06006KT 9999 -TSRA FEW015 BKN060CB 17/14 Q1009 RERA
  • EDDG: Muenster / Osnabrueck, Germany
    EDDG 191220Z AUTO 30010KT 270V330 9999 TSRA SCT042 FEW///CB 17/13 Q1010
  • EDDP: Leipzig-Schkeuditz, Germany
    EDDP 191420Z AUTO 23009KT 210V270 9999 TSRA SCT030 SCT041 FEW///CB 19/12 Q1009
  • EDDR: Saarbruecken / Ensheim, Germany
    EDDR 191350Z AUTO VRB01KT 6000 TSRA FEW004 BKN037 SCT///CB 14/11 Q1011 NOSIG
  • EDFM: Baden Wurttemberg, Neuostheim, Germany
    EDFM 191520Z 32009KT 220V010 1600 TSRA FEW022CB SCT028 BKN040 16/14 Q1011
  • EDGS: Hessen, Germany
    EDGS 191520Z 32008KT 8000 -TSRA FEW022 SCT035CB 12/10 Q1010
  • EDLN: Monchengladbach, Germany
    EDLN 191420Z 28006KT 210V310 9000 -TSRA SCT023CB 18/13 Q1010
    EDLN 191450Z 27005KT 220V300 4500 TSRA FEW020CB SCT036 17/14 Q1010
    EDLN 191520Z 31007KT 4000 TSRA OVC075CB 16/15 Q1010
  • EDLV: Niederrhein, Germany
    EDLV 191320Z 31006KT 260V030 7000 TSRA SCT022 BKN034CB 17/14 Q1010
    EDLV 191350Z 25008KT 190V300 9000 TSRA FEW018 OVC041CB 14/12 Q1010
  • EDSB: Karlsruhe, Baden Wurttemberg, Germany
    EDSB 191420Z 27005KT 240V310 9999 -TSRA FEW048CB 18/11 Q1011
  • EDVE: Braunschweig, Germany
    EDVE 191320Z 18006KT 9999 -TSRA FEW005 SCT082CB 15/13 Q1009
  • EHDL: Deelen, Netherlands
    EHDL 191255Z AUTO 33011KT 250V030 9999 -TSRA FEW021CB SCT045 BKN069 19/14 Q1010 BLU
  • EHEH: Eindhoven, Netherlands
    EHEH 191340Z AUTO 33007KT 6000 TSRA FEW015CB SCT047 BKN060 17/14 Q1010 WHT
    EHEH 191341Z AUTO 29004KT 9000 TSRA FEW015CB BKN069 OVC075 18/14 Q1010 BLU
    EHEH 191355Z AUTO 12003KT 070V150 9999 -TSRA FEW015CB SCT073 OVC079 16/14 Q1010 BLU
  • EHGR: Gilze-Rijen, Netherlands
    EHGR 191305Z AUTO 26002KT 7000 TSRA FEW031CB SCT055 BKN073 19/11 Q1011 WHT
    EHGR 191309Z AUTO 04004KT 360V110 9999 -TSRA FEW026CB SCT050 BKN058 19/12 Q1011 BLU
    EHGR 191346Z AUTO 33003KT 260V040 9999 -TSRA FEW023CB SCT037 OVC047 19/13 Q1010 BLU
    EHGR 191349Z AUTO 33003KT 260V010 4700 TSRA FEW025CB SCT037 BKN042 BKN065 19/13 Q1010 GRN
    EHGR 191359Z AUTO 27004KT 250V040 9999 -TSRA SCT016CB SCT064 BKN069 18/14 Q1010 WHT
    EHGR 191403Z AUTO 26004KT 250V040 9999 -TSRA FEW015CB SCT065 BKN092 18/14 Q1010 BLU
    EHGR 191413Z AUTO 28005KT 240V320 9999 -TSRA DZ FEW015CB SCT072 BKN085 18/15 Q1010 BLU
    EHGR 191425Z AUTO 28006KT 250V310 9999 -TSRA FEW015CB BKN091 OVC100 18/14 Q1010 REDZ BLU
    EHGR 191511Z AUTO 24006KT 210V280 9999 -TSRA FEW015CB SCT070 OVC077 17/13 Q1011 BLU
  • EHVK: Volkel, Netherlands
    EHVK 191434Z AUTO 30006KT 250V360 9999 -TSRA FEW031CB SCT042 BKN054 BKN061 19/11 Q1010 BLU
    EHVK 191455Z AUTO 31003KT 190V330 9999 -TSRA FEW015 FEW027CB SCT047 BKN068 16/09 Q1010 BLU
    EHVK 191506Z AUTO 19004KT 170V250 9999 -TSRA FEW018CB SCT071 BKN077 16/11 Q1010 BLU
  • EHWO: Woensdrecht, Netherlands
    EHWO 191425Z AUTO 28008KT 240V320 9999 -TSRA FEW015CB SCT053 BKN059 18/14 Q1011 BLU
  • ELLX: Luxembourg / Luxembourg, Luxembourg
    ELLX 191250Z 31006KT 270V350 9999 -TSRA SCT020CB 15/12 Q1012
    ELLX 191350Z 24005KT 190V290 9999 -TSRA SCT020CB 14/13 Q1011
  • EPLL: Lublinek, Poland
    EPLL 191200Z 25010KT 220V280 4800 -TSRA BKN019CB 15/13 Q1012 RESHRA
  • EPPO: Poznan, Poland
    EPPO 191200Z 11011G22KT 7000 -TSRA FEW016 BKN036CB 16/14 Q1011 RESHRA
  • ETAD: Spangdahlem, Germany
    ETAD 191420Z 28010KT 9999 -TSRA SCT027CB SCT040 17/11 A2983 RMK AO2A RAB20 SLP092 $
    ETAD 191425Z 01016G19KT 9999 -TSRA BKN027 BKN040CB 15/10 A2983 RMK AO2A WSHFT 22 RAB20 CIG 027V040 BKN027 V FEW SLP092 $
    ETAD 191445Z 31005KT 9000 -TSRA BKN022 BKN028 14/11 A2984 RMK AO2A RAB20 TSE27TSB30 SLP097 $
    ETAD 191506Z 00000KT 5000 TSRA BKN024 BKN048 BKN065 14/11 A2983 RMK AO2A TSE01TSB06 SLP093 $
  • ETHB: Bueckeburg, Germany
    ETHB 191528Z 22003KT 9999 -TSRA BKN025CB 17/13 Q1008 BLU
  • ETIH: Hohenfels, Germany
    ETIH 191248Z AUTO 27016KT 9999 -TSRA M M A2989 RMK AO2 RAB46 TSB38 PRESRR SLPNO ALSTG ESTMD RVRNO $
    ETIH 191300Z AUTO 25005KT 6000 TSRA M 13/08 A2987 RMK AO2 PRESFR SLP118 $
  • ETNW: Wunstorf, Germany
    ETNW 191334Z 34009KT 9999 -TSRA BKN030CB SCT110 17/12 Q1009 BLU
  • EVLA: Liepaja Intl Arpt, Latvia
    EVLA 191350Z AUTO 10003KT 070V150 9999 -TSRA FEW035/// //////CB 19/13 Q1013
  • KBBW: Broken Bow, Broken Bow Municipal Airport, NE, United States
    KBBW 191353Z AUTO 15011KT 10SM -TSRA BKN095 OVC110 12/11 A2997 RMK AO2 LTG DSNT S-W RAE03B29 TSB50 PRESRR SLP138 P0001 T01220111
    KBBW 191523Z AUTO 14004KT 10SM -TSRA BKN090 BKN110 12/11 A2992 RMK AO2 LTG DSNT S AND SW TSB23 P0000 T01170111
  • KCSB: UNKNOWN,
    KCSB 191315Z AUTO 15011KT 7SM -TSRA FEW038 SCT055 BKN095 16/15 A2991 RMK AO2 LTG DSNT ALQDS
    KCSB 191335Z AUTO 00000KT 3SM -TSRA BR FEW040 SCT070 BKN100 15/15 A2991 RMK AO2 LTG DSNT ALQDS
    KCSB 191535Z AUTO 11010G15KT 9SM -TSRA FEW015 SCT039 BKN065 16/15 A2993 RMK AO2 LTG DSNT ALQDS
  • KFET: Fremont Municipal Airport, NE, United States
    KFET 191215Z AUTO 21012G22KT 10SM TSRA SCT070 OVC100 14/06 A3014 RMK AO2 LTG DSNT NE THRU SW T01420061
  • KHDE: Brewster Field Airport, NE, United States
    KHDE 191515Z AUTO 15018G27KT 10SM -TSRA OVC110 14/12 A2996 RMK AO2 LTG DSNT N S AND W P0001 T01410123
  • KHLC: Hill City, KS, United States
    KHLC 191521Z AUTO 09012KT 10SM -TSRA SCT040 BKN055 BKN070 16/13 A2995 RMK AO2 WSHFT 1445 LTG DSNT NE-S RAB1456 TSB15 PRESFR P0000 T01560133
  • KLNK: Lincoln, Lincoln Municipal Airport, NE, United States
    KLNK 191154Z 36010KT 8SM -TSRA BKN085 OVC100 13/09 A3013 RMK AO2 PK WND 30040/1057 LTG DSNT ALQDS RAB11 TSB00 SLP196 P0011 60011 70011 T01280089 10183 20128 53049
  • KLXN: Lexington, NE, United States
    KLXN 191535Z AUTO 15018KT 3/4SM TSRA BKN008 BKN012 OVC018 16/14 A2993 RMK AO2 VIS M1/4V5 LTG DSNT ALQS P0005 T01560138
  • KMCK: McCook, McCook Municipal Airport, NE, United States
    KMCK 191303Z AUTO 18004KT 3SM TSRA BR FEW037 BKN075 OVC085 14/13 A2995 RMK AO2 LTG DSNT ALQDS P0006 T01440133
  • KMLE: Omaha, Millard Airport, NE, United States
    KMLE 191235Z AUTO 26005G18KT 10SM TSRA BKN070 OVC095 15/07 A3013 RMK AO2 LTG DSNT ALQS P0001 T01460073
    KMLE 191355Z AUTO 00000KT 10SM -TSRA SCT050 BKN085 OVC110 13/11 A3004 RMK AO2 LTG DSNT N AND NW P0003 T01250106
  • KOFF: Omaha / Offutt AFB, NE, United States
    KOFF 191216Z COR 25021G28KT 7SM -TSRA OVC060CB 18/04 A3011 RMK AO2A PRESRR SLP193
    KOFF 191430Z 28004KT 10SM -TSRA BKN070 OVC090 14/11 A3005 RMK AO2A DZE01RAB29 PRESRR SLP176
    KOFF 191455Z 06003KT 10SM -TSRA FEW045 OVC065 14/11 A3004 RMK AO2A LTG DSNT NE RAE30DZB30E31RAB31 SLP173 P0001 60016 T01420108 50013
    KOFF 191503Z 07003KT 10SM -TSRA FEW044 OVC065 14/11 A3004 RMK AO2A SLP173
  • KOKZ: Sandersville Kaolin, GA, United States
    KOKZ 191515Z AUTO 04004KT 10SM -TSRA OVC013 23/22 A2991 RMK AO2 LTG DSNT ALQDS T02310216
  • KOMA: Omaha, Eppley Airfield, NE, United States
    KOMA 191240Z 25010G21KT 10SM -TSRA BKN065CB OVC080 17/04 A3013 RMK AO2 PK WND 24026/1227 WSHFT 1220 LTG DSNT S-NW RAB34 TSB14 FRQ LTGICCG SW-W TS SW-W MOV NE P0000 T01720039
    KOMA 191252Z 28007KT 6SM -TSRA BKN075CB OVC090 16/06 A3011 RMK AO2 PK WND 24026/1227 WSHFT 1220 LTG DSNT ALQDS RAB34 TSB14 SLP191 OCNL LTGICCG S-OHD TS S-OHD MOV NE P0000 T01610061
    KOMA 191427Z 31006KT 10SM -TSRA FEW075CB OVC095 14/10 A3005 RMK AO2 LTG DSNT E AND SW TSB26 OCNL LTGICCCCGCA SW-NW TS SW-NW MOV NE P0001 T01390100
    KOMA 191452Z 11009KT 6SM -TSRA BR FEW050 BKN070CB OVC090 13/11 A3004 RMK AO2 LTG DSNT E AND SE TSB26 SLP170 OCNL LTGICCCCGCA NE-SE TS NE-SE MOV NE P0008 60013 T01330111 50005
  • KRSL: Russell, Russell Municipal Airport, KS, United States
    KRSL 191353Z AUTO 06012G21KT 10SM -TSRA FEW060 BKN100 BKN120 16/11 A2993 RMK AO2 PK WND 06026/1317 LTG DSNT N AND S AND NW RAB43 TSB47 SLP125 P0001 T01610111
  • KWDR: Winder, Winder-Barrow Airport, GA, United States
    KWDR 191415Z AUTO 00000KT 10SM TSRA SCT008 OVC015 18/17 A2999 RMK AO2 LTG DSNT SE
  • LEBG: Burgos / Villafria, Spain
    LEBG 191400Z 06010KT 030V090 9999 4900SE -TSRA FEW018 BKN032CB 09/07 Q1011
    LEBG 191430Z 10008KT 070V140 9999 -TSRA FEW015 SCT030CB 10/08 Q1011
  • LEHC: Pirineos, Spain
    LEHC 191300Z 12010KT 090V170 9000 3000SW TSRA OVC040CB 16/11 Q1010
    LEHC 191318Z 14007KT 090V170 9999 -TSRA BKN023CB OVC044 15/12 Q1010 RETSRA
    LEHC 191330Z 13006KT 090V170 9999 -TSRA SCT037CB OVC044 14/12 Q1010 RETSRA
    LEHC 191524Z 09003KT 040V150 9999 3000SW TSRA FEW016 BKN046CB 15/12 Q1010
    LEHC 191530Z VRB02KT 8000 3000SW TSRA FEW016 BKN045CB 15/12 Q1010
  • LEPP: Pamplona / Noain, Spain
    LEPP 191401Z 29007KT 260V330 9999 -TSRA BKN033 FEW040CB 14/10 Q1010
  • LETU: UNKNOWN,
    LETU 191230Z AUTO 01006KT 330V030 9999 -TSRA FEW032/// BKN068/// //////CB 17/11 Q1010
  • LEVD: Valladolid / Villanubla, Spain
    LEVD 191524Z 15006KT 100V190 9000 4000SW TSRA SCT035 BKN045CB 13/08 Q1011
    LEVD 191530Z 12009KT 090V160 8000 3000NE -TSRA FEW018 BKN045CB 11/08 Q1011 RERA
  • LFCR: Rodez, France
    LFCR 191430Z AUTO 22009KT 9999 -TSRA FEW047/// OVC070/// //////CB 15/12 Q1010
    LFCR 191430Z AUTO 22009KT 9999 -TSRA FEW047/// OVC070/// ///CB 15/12 Q1010
  • LFHP: Le Puy, France
    LFHP 191530Z AUTO 04004KT 350V100 9999 -TSRA FEW024/// SCT039/// BKN047/// ///CB 12/11 Q1012
  • LFLW: Aurillac, France
    LFLW 191500Z AUTO 23003KT 9999 -TSRA BKN054/// BKN076/// OVC092/// //////CB 17/10 Q1010
    LFLW 191500Z AUTO 23003KT 9999 -TSRA BKN054/// BKN076/// OVC092/// ///CB 17/10 Q1010
  • LFOP: Rouen, France
    LFOP 191330Z AUTO 04003KT 040V170 6000 TSRA FEW028/// BKN041/// BKN048/// //////CB 16/10 Q1013
    LFOP 191330Z AUTO 04003KT 040V170 6000 TSRA FEW028/// BKN041/// BKN048/// ///CB 16/10 Q1013
    LFOP 191400Z AUTO 09009KT 9999 -TSRA FEW036/// BKN047/// BKN058/// //////CB 14/13 Q1013
    LFOP 191400Z AUTO 09009KT 9999 -TSRA FEW036/// BKN047/// BKN058/// ///CB 14/13 Q1013
  • LFRH: Lann Bihoue, France
    LFRH 191430Z AUTO 26009KT 9999 -TSRA FEW042/// BKN078/// BKN100/// //////CB 18/13 Q1012
    LFRH 191430Z AUTO 26009KT 9999 -TSRA FEW042/// BKN078/// BKN100/// ///CB 18/13 Q1012
  • LFRM: Le Mans, France
    LFRM 191530Z AUTO VRB03KT 9999 TSRA FEW035/// BKN044/// OVC060/// //////CB 16/13 Q1012
    LFRM 191530Z AUTO VRB03KT 9999 TSRA FEW035/// BKN044/// OVC060/// ///CB 16/13 Q1012
  • LFRN: Rennes, France
    LFRN 191430Z AUTO VRB02KT 3900 1000 R28/P2000 R10/1600D TSRA BR FEW006/// SCT037/// BKN056/// //////CB 15/12 Q1012
    LFRN 191430Z AUTO VRB02KT 3900 1000 R28/P2000 R10/1600D TSRA BR FEW006/// SCT037/// BKN056/// ///CB 15/12 Q1012
    LFRN 191530Z AUTO 15003KT 120V230 9999 -TSRA //////CB 15/13 Q1012
    LFRN 191530Z AUTO 15003KT 120V230 9999 -TSRA ///CB 15/13 Q1012
  • LFRV: Vannes-Meucon, France
    LFRV 191400Z AUTO 20006KT 160V230 9999 -TSRA BKN046/// BKN056/// BKN200/// ///CB 16/11 Q1012
    LFRV 191430Z AUTO 32003KT 270V340 9000 TSRA FEW028/// SCT048/// OVC074/// ///CB 14/12 Q1012
  • LIBA: Amendola, Italy
    LIBA 191455Z 09004KT 3000 -TSRA BR FEW030CB SCT050 20/18 Q1010
    LIBA 191455Z 09004KT 3000 -TSRA BR FEW030CB SCT050 20/18 Q1010 RMK OVC BKN080 VIS MIN 3000 WIND THR11 07005KT WIND THR29 /////KT YLO
  • LIBF: Foggia/Gino Lisa, Italy
    LIBF 191359Z 10010KT 9999 TSRA SCT040CB 22/16 Q1010
    LIBF 191419Z 16006KT 100V210 2000 TSRA SCT040CB 21/17 Q1011
    LIBF 191430Z 11012KT 6000 -TSRA SCT040CB 19/17 Q1010
    LIBF 191450Z 14005KT 110V200 5000 TSRA SCT040CB 19/18 Q1011
  • LICC: Catania / Fontanarossa, Italy
    LICC 191150Z 09010KT 070V130 5000 -TSRA FEW030CB BKN090 22/19 Q1013
  • LICF: Messina, Italy
    LICF 191206Z 31010KT 9999 -TSRA FEW035CB SCT040 26/16 Q1014 RMK OVC BKN080 OVC200 QUK 3 QUL 1 NW VIS MAR 12 KM MON LIB NC VIS MIN 9999
    LICF 191321Z 28002KT 9999 -TSRA FEW035CB BKN040 24/21 Q1014 RMK OVC BKN080 OVC200 QUK 2 QUL 0 VIS MAR 10 KM MON LIB NC VIS MIN 9999
    LICF 191355Z 33007G18KT 9000 -TSRA FEW035CB BKN040 22/21 Q1014 RMK OVC BKN080 OVC200 QUK 2 QUL 0 VIS MAR 9 KM MON LIB NC VIS MIN 9000
  • LKCV: Caslav, Czech Republic
    LKCV 191503Z 06006KT 9999 -TSRA SCT030CB SCT070 20/12 Q1010 RMK BLU
  • LKKV: Karlovy Vary, Czech Republic
    LKKV 191300Z 28007KT 240V300 9999 -TSRA SCT031CB BKN042 15/08 Q1011
    LKKV 191330Z 23003KT 140V300 9999 TSRA SCT018 BKN029CB 09/08 Q1012
    LKKV 191400Z VRB02KT 9999 -TSRA SCT025CB BKN049 10/10 Q1012
  • LKLN: Plzen Line, Czech Republic
    LKLN 191500Z AUTO 25011G25KT 220V280 9999 -TSRA FEW041 SCT053 BKN074 15/11 Q1012
  • LKMT: Ostrava / Mosnov, Czech Republic
    LKMT 191400Z 25009KT 9000 -TSRA SCT022CB BKN045 18/15 Q1011
  • LTCI: Van, Turkey
    LTCI 191206Z 31005KT 9999 -TSRA FEW020CB SCT030 BKN070 16/07 Q1015 RETS
    LTCI 191215Z 33016G34KT 8000 -TSRA FEW020CB SCT030 BKN070 13/09 Q1016
    LTCI 191222Z 32026KT 7000 TSRA FEW017CB BKN025 BKN060 12/10 Q1016
    LTCI 191229Z 33020KT 300V360 9999 -TSRA FEW017CB SCT025 BKN070 12/10 Q1016 RETSRA
  • LTCK: Mus Tur-Afb, Turkey
    LTCK 191150Z 02014KT 9999 -TSRA FEW025CB SCT035 BKN090 17/12 Q1013 RETS
    LTCK 191150Z 02014KT 9999 -TSRA FEW025CB SCT035 BKN090 17/12 Q1013 RETS RMK RWY11 01014KT
    LTCK 191250Z 03009KT 9999 -TSRA FEW025CB SCT035 BKN090 17/11 Q1013
    LTCK 191250Z 03009KT 9999 -TSRA FEW025CB SCT035 BKN090 17/11 Q1013 RMK RWY11 01007KT 330V040
  • LTCO: Agri, Turkey
    LTCO 191216Z 11005KT 9000 -TSRA FEW025CB SCT035 BKN070 13/08 Q1015 RETS
    LTCO 191250Z 14006KT 9999 -TSRA FEW025CB SCT035 BKN070 12/09 Q1015 RETS
  • MPBO: Bocas Del Toro International, Panama
    MPBO 191300Z 36002KT 8000 -TSRA SCT008 BKN015CB 27/27 Q1011
  • OITR: Orumieh, Iran
    OITR 191500Z 02012KT 7000 TSRA SCT030CB BKN035 17/09 Q1012 A2989
  • OITT: Tabriz, Iran
    OITT 191512Z 24008KT 8000 -TSRA BKN030CB FEW032TCU 19/05 Q1013 A2994
    OITT 191530Z 22008KT 8000 -TSRA BKN030CB FEW032TCU 18/05 Q1014 A2994
  • URKK: Krasnodar, Russia
    URKK 191200Z 34003MPS 9999 -TSRA BKN050CB 15/12 Q1016 RESHRA R05R/290060
    URKK 191230Z 20005MPS 160V220 9999 -TSRA BKN050CB 16/13 Q1016 R05R/290060
  • VEAT: Agartala, India
    VEAT 191200Z 13004KT 3500 -TSRA SCT018 FEW030CB BKN100 25/24 Q1004
    VEAT 191230Z 21006KT 3500 -TSRA SCT018 FEW030CB BKN100 25/24 Q1004
    VEAT 191300Z 27005KT 3500 -TSRA SCT018 FEW030CB BKN100 25/24 Q1004
  • VEBS: Bhubaneswar, India
    VEBS 191330Z 16006KT 5000 TSRA BKN018 FEW030CB BKN100 30/23 Q1003
  • VEGT: Gauhati, India
    VEGT 191330Z 21006KT 2500 -TSRA SCT016 FEW025CB BKN090 31/30 Q1003
    VEGT 191400Z 25006KT 2500 -TSRA SCT016 FEW025CB BKN090 30/30 Q1003 NOSIG
    VEGT 191500Z 27005KT 2500 -TSRA SCT016 FEW025CB BKN090 28/27 Q1006
    VEGT 191530Z 34013KT 2000 TSRA SCT016 FEW025CB OVC080 26/26 Q1005
  • VELP: Lengpui, India
    VELP 191200Z 22005KT 3000 -TSRA SCT018 FEW030CB BKN100 27/25 Q1006
  • VOBG: Bangalore / Hindustan, India
    VOBG 191200Z 14006KT 3000 -TSRA SCT010 SCT012 FEW025CB BKN080 24/23 Q1008 NOSIG
    VOBG 191230Z 03006KT 3000 -TSRA SCT010 SCT012 FEW025CB BKN080 24/23 Q1009 NOSIG
    VOBG 191400Z 19004KT 3000 -TSRA SCT012 FEW025CB BKN080 24/22 Q1010 NOSIG
    VOBG 191430Z 32003KT 4000 -TSRA SCT012 FEW025CB BKN080 24/23 Q1010 NOSIG
    VOBG 191500Z 24003KT 4000 -TSRA SCT012 FEW025CB BKN080 23/22 Q1011 NOSIG
  • VOBL: Bengaluru, India
    VOBL 191200Z 09012G25KT 0500 TSRA R09/690 R27/520 SCT012 SCT020 FEW025CB 21/21 Q1009
    VOBL 191200Z 09012G25KT 280V090 0500 -TSRA R09/690 R27/520 SCT012 SCT020 FEW025CB 21/21 Q1009
    VOBL 191230Z 20008KT 3000 -TSRA SCT012 SCT020 FEW025CB 21/20 Q1008 NOSIG
    VOBL 191230Z VRB08KT 3000 -TSRA SCT012 SCT020 FEW025CB 21/20 Q1008 NOSIG
    VOBL 191300Z 20006KT 5000 -TSRA SCT012 SCT020 FEW025CB 22/21 Q1008 NOSIG
    VOBL 191330Z 20006KT 5000 -TSRA SCT012 SCT020 FEW025CB 22/21 Q1009
    VOBL 191400Z 20006KT 5000 -TSRA SCT012 SCT020 FEW025CB 22/20 Q1010
    VOBL 191430Z 20006KT 5000 -TSRA SCT012 SCT020 FEW025CB 22/20 Q1010
    VOBL 191500Z 20005KT 5000 -TSRA SCT012 SCT020 FEW025CB 22/21 Q1010 NOSIG
    VOBL 191530Z 22005KT 5000 -TSRA SCT012 SCT020 FEW025CB 22/21 Q1010 NOSIG
  • VOGA: UNKNOWN,
    VOGA 191200Z 11013KT 0700 R28/1400 R10/P2000 TSRA BKN005 OVC015 FEW025CB 24/22 Q1003 NOSIG
    VOGA 191230Z 08006KT 2500 -TSRA BKN015 FEW025CB OVC080 24/22 Q1003 NOSIG
  • VOGO: Goa/dabolim, India
    VOGO 191300Z 31013KT 1500 TSRA FEW008 FEW025CB OVC080 25/24 Q1002
  • VOKN: Kannur Intl, India
    VOKN 191400Z 30004KT 3000 -TSRA SCT012 FEW025CB BKN080 29/26 Q1004 NOSIG
    VOKN 191430Z VRB02KT 3000 -TSRA SCT012 FEW025CB BKN080 28/26 Q1004 NOSIG
    VOKN 191430Z VRB03KT 3000 -TSRA SCT012 FEW025CB BKN080 28/26 Q1004 NOSIG
    VOKN 191500Z 09006KT 3000 -TSRA SCT012 FEW025CB BKN080 28/26 Q1004
    VOKN 191530Z 09006KT 1500 TSRA FEW004 SCT012 FEW025CB OVC080 27/26 Q1005 NOSIG
  • VOMY: Mysore Airport, India
    VOMY 191200Z VRB02KT 5000 -TSRA SCT015 SCT020 FEW025CB BKN080 23/22 Q1007
  • VORY: Rajahmundry Airport, India
    VORY 191200Z 02006KT 5000 -TSRA SCT016 FEW030CB OVC080 28/25 Q1003 NOSIG
  • VOTR: Tiruchchirapalli, India
    VOTR 191430Z 10005KT 3000 TSRA SCT016 FEW025CB OVC080 27/25 Q1005 NOSIG
    VOTR 191500Z 14003KT 2500 -TSRA SCT016 FEW025CB OVC080 COR 26/25 Q1005 NOSIG
    VOTR 191500Z 14003KT 3000 TSRA SCT016 FEW025CB OVC080 26/25 Q1005 NOSIG
    VOTR 191530Z VRB02KT 2500 -TSRA SCT015 FEW025CB OVC080 26/25 Q1005 NOSIG
  • VTBD: Don Muang, Thailand
    VTBD 191330Z 29012KT 9000 -TSRA FEW020CB SCT030 27/25 Q1005 RERA
    VTBD 191400Z 20005KT 160V240 9000 -TSRA FEW020CB SCT030 27/25 Q1006
    VTBD 191430Z 20003KT 160V250 9999 -TSRA FEW020CB SCT030 27/25 Q1006
    VTBD 191500Z 19002KT 9000 -TSRA FEW020CB SCT030 27/25 Q1007
  • VTBS: Chon Buri, Thailand
    VTBS 191500Z 23010KT 210V280 9000 -TSRA FEW015CB BKN030 27/23 Q1006
    VTBS 191530Z 25008KT 220V280 9000 -TSRA FEW020CB 26/22 Q1006
  • VTCC: Chiang Mai, Thailand
    VTCC 191400Z 23006KT 210V270 9999 -TSRA FEW025CB BKN035 28/23 Q1006
  • VTSG: Krabi, Thailand
    VTSG 191200Z 32005KT 240V010 9999 -TSRA FEW018CB BKN020 27/26 Q1006 RERA NOSIG
  • VTSM: Samui, Thailand
    VTSM 191200Z VRB02KT 8000 -TSRA FEW018CB SCT020 27/26 Q1006 RERA NOSIG
  • VVCR: Cam Ranh Bay, Viet Nam
    VVCR 191330Z 24010KT 9999 -TSRA SCT015 FEW017CB SCT060 28/26 Q1006
  • VVVD: Vo Dat, Vietnam
    VVVD 191200Z AUTO 03004KT 9999 -TSRA BKN007/// OVC013/// 26/26 Q1004 RETS NOSIG
    VVVD 191230Z AUTO VRB02KT 9000 -TSRA SCT007/// BKN012/// OVC016/// 26/26 Q1005 RETS NOSIG
    VVVD 191300Z AUTO VRB02KT 9999 -TSRA FEW006/// BKN020/// 26/26 Q1005 RETS NOSIG
    VVVD 191330Z AUTO VRB02KT 5000 -TSRA SCT007/// SCT025/// OVC092/// 26/26 Q1005 RETS NOSIG
  • WAYY: Timika, Indonesia
    WAYY 191200Z 34004KT 4000 -TSRA SCT010CB BKN011 26/26 Q1010 NOSIG RMK CB OVER THE FILED
  • WMKI: Ipoh, Malaysia
    WMKI 191200Z VRB01KT 7000 -TSRA FEW017CB SCT023 28/26 Q1006
    WMKI 191300Z 00000KT 7000 -TSRA FEW017CB SCT024 27/26 Q1007
    WMKI 191400Z 02004KT 350V060 7000 -TSRA FEW003 FEW017CB SCT024 27/26 Q1008
    WMKI 191500Z 05005KT 360V080 7000 -TSRA FEW003 FEW017CB SCT024 26/25 Q1008
  • ZBSJ: Zhengding, China
    ZBSJ 191200Z 05004MPS 020V080 4000 TSRA BR FEW016CB BKN033 21/20 Q1010
    ZBSJ 191300Z 05004G09MPS 340V100 2500 -TSRA BR FEW016CB BKN033 20/20 Q1012 RESHRA
    ZBSJ 191400Z 05003MPS 020V080 3500 -TSRA BR FEW016CB BKN033 20/20 Q1014
  • ZBTJ: Tianjin / Zhangguizhu, China
    ZBTJ 191200Z 10006MPS 7000 -TSRA SCT013 BKN033 FEW033CB 17/14 Q1015
  • ZPPP: Kunming, China
    ZPPP 191200Z 03007MPS 360V060 8000 TSRA FEW026CB SCT026 BKN040 16/15 Q1017


0 stations reporting blizzard conditions

0 stations reporting near-blizzard conditions


3 stations reporting visibility of zero

  • CYHM: Hamilton Airport, Canada
    CYHM 191200Z 00000KT 0SM R12/0700V0800FT/N FG VV001 14/14 A3000 RMK FG8 SLP160
  • KMWN: Mount Washington, NH, United States
    KMWN 191347Z 08006KT 0SM FG VV000 05/05 RMK
    KMWN 191347Z COR 08006KT 0SM FG VV000 05/05 RMK DZE30
  • MHLE: La Esperanza, Honduras
    MHLE 191200Z 00000KT 0000 FG VV/// 15/15
40 stations reporting visibility 1/8 mile or less, but not zero

  • CYSN: Saint Catharines Airport, Canada [1/8mile]
    CYSN 191200Z 00000KT 1/8SM FG VV001 13/13 A2999 RMK FG8 SLP157
    CYSN 191300Z VRB03KT 1/8SM FG VV001 14/14 A3000 RMK FG8 SLP160
  • CYTL: Big Trout Lake, Canada [1/8mile]
    CYTL 191200Z AUTO 28004KT 1/8SM -RA FG VV002 09/09 A2941 RMK SLP968
  • K0VG: Jonesville Lee County, VA, United States [<1/4mile]
    K0VG 191215Z AUTO 00000KT M1/4SM FG OVC002 15/15 A3001 RMK AO2
    K0VG 191235Z AUTO 00000KT M1/4SM FG OVC002 16/16 A3001 RMK AO2
    K0VG 191255Z AUTO 00000KT M1/4SM FG OVC002 16/16 A3002 RMK AO2
  • K11R: Brenham, Brenham Municipal Airport, TX, United States [<1/4mile]
    K11R 191155Z AUTO 00000KT M1/4SM FG OVC002 22/21 A2995 RMK AO2 7//// T02190213 10250 20218
    K11R 191215Z AUTO 00000KT M1/4SM FG OVC002 22/22 A2996 RMK AO2 T02200215
    K11R 191235Z AUTO 00000KT M1/4SM FG OVC002 22/22 A2997 RMK AO2 T02230217
  • K1A6: Middlesboro-bell, KY, United States [<1/4mile]
    K1A6 191155Z AUTO 00000KT M1/4SM FG OVC003 17/17 A3000 RMK AO2 70006 T01660166 10170 20160
  • K2G4: Garrett Co, MD, United States [<1/4mile]
    K2G4 191145Z AUTO 19003KT M1/4SM FG OVC001 13/13 A3004 RMK AO2
    K2G4 191205Z AUTO VRB04KT M1/4SM -RA FG OVC001 13/13 A3005 RMK AO2
    K2G4 191225Z AUTO 19003KT M1/4SM +DZ FG OVC001 14/14 A3005 RMK AO2
  • K4M9: Corning, AR, United States [<1/4mile]
    K4M9 191155Z AUTO 00000KT M1/4SM FG OVC002 21/21 A3000 RMK A01
  • K66R: Columbus, TX, United States [<1/4mile]
    K66R 191155Z AUTO 00000KT M1/4SM FG OVC003 A2996 RMK AO2
    K66R 191215Z AUTO 00000KT M1/4SM FG OVC003 A2997 RMK AO2
    K66R 191235Z AUTO 00000KT M1/4SM FG OVC003 A2997 RMK AO2
    K66R 191255Z AUTO 00000KT M1/4SM FG OVC003 A2998 RMK AO2
  • K6L4: Logan, WV, United States [<1/4mile]
    K6L4 191155Z AUTO 00000KT M1/4SM FG VV000 15/15 A3001 RMK AO2
  • K6R3: Cleveland, TX, United States [<1/4mile]
    K6R3 191235Z AUTO 00000KT M1/4SM FG OVC002 22/22 A2998 RMK AO2 T02220216
  • KAQV: Peason Ridge/Polk, LA, United States [<1/4mile]
    KAQV 191205Z AUTO 00000KT M1/4SM FG VV002 20/19 A2996 RMK AO2 T02000189
  • KARM: Wharton, TX, United States [<1/4mile]
    KARM 191155Z AUTO 00000KT M1/4SM FG OVC001 A2995 RMK AO2 TSNO
    KARM 191315Z AUTO 00000KT M1/4SM FG OVC003 A2997 RMK AO2 TSNO
    KARM 191335Z AUTO 10003KT M1/4SM FG OVC003 A2998 RMK AO2 TSNO
  • KAXH: Houston-Southwest, TX, United States [<1/4mile]
    KAXH 191155Z AUTO 00000KT M1/4SM FG OVC006 19/18 A2995 RMK AO2 T01910183 10225 20190
  • KBEA: Beeville, TX, United States [<1/4mile]
    KBEA 191155Z AUTO 00000KT M1/4SM FG OVC002 23/22 A2992 RMK AO2 T02260219 10248 20226
    KBEA 191215Z AUTO 00000KT M1/4SM FG OVC002 23/22 A2993 RMK AO2 T02280220
    KBEA 191235Z AUTO 00000KT M1/4SM FG OVC002 23/23 A2993 RMK AO2 T02330225
    KBEA 191255Z AUTO 00000KT M1/4SM FG OVC002 24/23 A2994 RMK AO2 T02360227
    KBEA 191315Z AUTO 07003KT M1/4SM FG OVC002 24/23 A2995 RMK AO2 T02370228
  • KBYY: Bay City, Bay City Municipal Airport, TX, United States [<1/4mile]
    KBYY 191155Z AUTO 10003KT M1/4SM FG OVC002 22/21 A2994 RMK AO2 T02180216
  • KCPF: Wendell H. Ford, KY, United States [<1/4mile]
    KCPF 191155Z AUTO 00000KT M1/4SM FG OVC002 14/13 A3001 RMK AO2
    KCPF 191215Z AUTO 00000KT M1/4SM FG OVC002 15/15 A3001 RMK AO2
  • KEBG: Edinburg, Edinburg Intl Arpt, TX, United States [<1/4mile]
    KEBG 191155Z AUTO 00000KT M1/4SM FG VV000 25/25 A2990 RMK AO2 10260 20236 70000
    KEBG 191215Z AUTO 00000KT M1/4SM FG VV000 25/25 A2990 RMK AO2
    KEBG 191235Z AUTO 00000KT M1/4SM FG BKN001 25/25 A2990 RMK AO2
  • KELA: Eagle Lake, TX, United States [<1/4mile]
    KELA 191215Z AUTO 00000KT M1/4SM FG OVC003 20/20 A2995 RMK AO2 T02000200
    KELA 191235Z AUTO 00000KT M1/4SM FG OVC003 20/20 A2996 RMK AO2 T02020202
    KELA 191255Z AUTO 00000KT M1/4SM FG OVC003 21/21 A2997 RMK AO2 T02050205
  • KFYE: Somerville, TN, United States [<1/4mile]
    KFYE 191235Z AUTO 00000KT M1/4SM FG OVC002 18/18 A3000 RMK A01
  • KHRL: Harlingen, Rio Grande Valley Intl Arpt, TX, United States [<1/4mile]
    KHRL 191202Z 00000KT M1/4SM FG BKN015 OVC120 23/23 A2989 RMK AO2 T02330233 $
  • KI35: Harlan, KY, United States [<1/4mile]
    KI35 191155Z AUTO 00000KT M1/4SM OVC002 17/17 A3001 RMK AO2 P0001 60002 70010 T01740174 10177 20170
    KI35 191215Z AUTO 00000KT M1/4SM OVC002 18/18 A3001 RMK AO2 T01760176
    KI35 191235Z AUTO 00000KT M1/4SM OVC002 18/18 A3002 RMK AO2 T01800180
  • KIAG: Niagara Falls, NY, United States [<1/4mile]
    KIAG 191153Z 00000KT M1/4SM R28R/0700V1000FT FG VV002 14/13 A2999 RMK AO2 SLP155 T01440133 10144 20128 53013
  • KIKG: Kingsville, TX, United States [<1/4mile]
    KIKG 191155Z AUTO 00000KT M1/4SM FG OVC002 25/24 A2991 RMK AO2 T02460241 10260 20246
    KIKG 191215Z AUTO 00000KT M1/4SM FG OVC002 25/24 A2992 RMK AO2 T02470243
    KIKG 191235Z AUTO 00000KT M1/4SM FG OVC002 25/25 A2993 RMK AO2 T02500245
  • KMWN: Mount Washington, NH, United States [1/16mile]
    KMWN 191149Z 10012KT 1/16SM -DZ FG VV000 04/04 RMK DZB22 60000 70016 10044 20033
    KMWN 191250Z 10011KT 1/16SM -DZ FG VV000 04/04 RMK
    KMWN 191458Z 03002KT 1/16SM FG VV000 06/06 RMK
  • KOPL: Opelousas, LA, United States [<1/4mile]
    KOPL 191150Z AUTO 00000KT M1/4SM FG OVC003 21/21 A2997 RMK AO2 P0001 60003 70014 T02100205 10232 20204
    KOPL 191250Z AUTO 00000KT M1/4SM FG OVC003 22/22 A2998 RMK AO2 T02240219
    KOPL 191310Z AUTO 00000KT M1/4SM FG OVC003 23/22 A2999 RMK AO2 T02270222
  • KPBX: Pikeville, KY, United States [<1/4mile]
    KPBX 191155Z AUTO 00000KT M1/4SM FG OVC001 16/16 A3001 RMK AO2 T01550155 10181 20148
    KPBX 191215Z AUTO 00000KT M1/4SM FG OVC001 16/16 A3001 RMK AO2 T01590159
    KPBX 191235Z AUTO 00000KT M1/4SM FG OVC001 16/16 A3002 RMK AO2 T01610161
  • KPJC: Zelienople AP, PA, United States [<1/4mile]
    KPJC 191155Z AUTO 00000KT M1/4SM FG OVC001 13/13 A3000 RMK AO2
    KPJC 191215Z AUTO 00000KT M1/4SM FG OVC001 13/13 A3000 RMK AO2
  • KPSN: Palestine, Palestine Municipal Airport, TX, United States [<1/4mile]
    KPSN 191515Z AUTO 20004KT M1/4SM -RA HZ BKN016 27/23 A2998 RMK AO2
    KPSN 191535Z AUTO VRB03KT M1/4SM -RA HZ BKN019 28/24 A2998 RMK AO2
  • KRNC: McMinnville, TN, United States [<1/4mile]
    KRNC 191155Z AUTO 03003KT M1/4SM FG OVC002 18/18 A2998 RMK A01
  • KRWV: Caldwell, TX, United States [<1/4mile]
    KRWV 191150Z AUTO 00000KT M1/4SM FG OVC005 21/21 A2997 RMK AO2 T02110206 10236 20210
  • KSNH: Savannah, TN, United States [<1/4mile]
    KSNH 191150Z AUTO 00000KT M1/4SM FG OVC002 18/18 A2997 RMK A01
    KSNH 191210Z AUTO 00000KT M1/4SM FG OVC002 18/18 A2998 RMK A01
    KSNH 191230Z AUTO 36004KT M1/4SM FG OVC003 18/18 A2999 RMK A01
    KSNH 191250Z AUTO 36004KT M1/4SM FG OVC003 18/18 A2999 RMK A01
  • KSRB: Sparta, TN, United States [<1/4mile]
    KSRB 191155Z AUTO 00000KT M1/4SM FG OVC002 17/17 A2999 RMK AO2
  • KTHA: Tullahoma, TN, United States [<1/4mile]
    KTHA 191155Z AUTO 36004KT M1/4SM FG OVC002 17/17 A2997 RMK A01
  • KTME: Houston Executive, TX, United States [<1/4mile]
    KTME 191155Z AUTO 00000KT M1/4SM FG VV000 21/21 A2996 RMK AO2
  • KTXW: Weslaco, TX, United States [<1/4mile]
    KTXW 191215Z AUTO 00000KT M1/4SM FG OVC001 25/24 A2991 RMK AO2 T02460241
    KTXW 191235Z AUTO 00000KT M1/4SM FG OVC001 25/24 A2991 RMK AO2 T02470241
  • KUCP: New Castle, PA, United States [<1/4mile]
    KUCP 191156Z AUTO 00000KT M1/4SM FG OVC002 13/13 A3001 RMK AO2 SLP174 6//// 7//// T01280128 10133 20111 52016 RVRNO PNO $
  • MMMA: Matamoros International, Mexico [1/16mile]
    MMMA 191200Z RTD 00000KT 1/16SM FG VV002 24/24 A2990 RMK SLP122 5//// 928 8//// RTS
  • PALU: Cape Lisburne, Cape Lisburne LRRS Airport, AK, United States [<1/4mile]
    PALU 191455Z AUTO 09006KT M1/4SM -FZRA FZFG VV002 01/01 A2995
    PALU 191455Z AUTO 09006KT M1/4SM -FZRA FZFG VV002 01/01 A2995 RMK AO2 SLP142 P0000 60000 T00080010 57006
  • SAZN: Neuquen Aerodrome, Argentina [100meters]
    SAZN 191300Z 27002KT 0100 FG VV/// 01/01 Q1021
  • SBCZ: Cruzeiro Do Sul, Brazil [50meters]
    SBCZ 191200Z 00000KT 0050 FG VV001 23/23 Q1015
0 stations reporting visibility 75 miles or greater

0 stations reporting visibility 50-74 miles


0 stations reporting aurora

0 stations reporting solar/lunar eclipse


0 stations reporting inside a hurricane eye

0 stations reporting aircraft mishap

12 stations reporting bird hazard on the runway

  • SPCL: Pucallpa, Peru
    SPCL 191200Z 20003KT 9999 FEW020 25/24 Q1015 RMK TN23.6 BIRD HAZARD RWY 02/20 PP000
    SPCL 191300Z 17004KT 9999 FEW020 27/24 Q1016 RMK BIRD HAZARD RWY 02/20 PP000
    SPCL 191400Z 15003KT 9999 SCT020 29/23 Q1016 RMK BIRD HAZARD RWY 02/20 PP000
    SPCL 191500Z 14003KT 9999 SCT020 30/23 Q1016 RMK BIRD HAZARD RWY 02/20 PP000
  • SPHI: Chiclayo, Peru
    SPHI 191200Z 19009KT 7000 SCT007 OVC010 18/16 Q1014 RMK BR BIRD HAZARD RWY 19/01 TN17.8 PP000
    SPHI 191300Z 19008KT 7000 OVC010 19/16 Q1014 RMK BR BIRD HAZARD RWY 19/01 PP000
    SPHI 191400Z 18012KT 8000 OVC012 19/16 Q1015 RMK BR BIRD HAZARD RWY 19/01 PP000
    SPHI 191500Z 20007KT 9999 BKN012 20/17 Q1014 RMK BIRD HAZARD RWY 19/01 PP000
  • SPHO: Ayacucho, Peru
    SPHO 191200Z 00000KT 9999 SCT060 BKN080 13/08 Q1031 RMK TN11.5 BIRD HAZARD RWY 02/20 PP000
    SPHO 191300Z 07004KT 030V110 9999 FEW050 15/07 Q1032 RMK BIRD HAZARD RWY 02/20 PP000
    SPHO 191400Z VRB01KT 9999 FEW050 17/08 Q1032 RMK BIRD HAZARD RWY 02/20 PP000
    SPHO 191500Z 04005KT 340V100 9999 FEW050 18/08 Q1032 RMK BIRD HAZARD RWY 02/20 PP000
  • SPHY: Andahuayla, Peru
    SPHY 191200Z 00000KT 9999 SCT012 OVC060 07/05 Q1037 RMK TX18.8/TN1.8 BIRD HAZARD RWY03/21 PP000
    SPHY 191300Z 21003KT 9999 SCT012 09/06 Q1038 RMK BIRD HAZARD RWY03/21 PP000
    SPHY 191400Z 25003KT 9999 SCT012 13/07 Q1038 RMK BIRD HAZARD RWY03/21 PP000
    SPHY 191500Z 02005KT 9999 SCT012 15/08 Q1038 RMK BIRD HAZARD RWY03/21 PP000
  • SPJC: Lima/J Chavez, Peru
    SPJC 191500Z 29006KT 6000 OVC007 18/16 Q1014 NOSIG RMK BIRD HAZARD RWY 16 PP000
  • SPME: Tumbes, Peru
    SPME 191500Z 23003KT 9999 BKN020 29/22 Q1011 RMK BIRD HAZARD RWY 32/14 PP000
    SPME 191500Z 23003KT 9999 BKN020 29/22 Q1011 RMK TN 23.7 BIRD HAZARD RWY 32/14 PP000
  • SPQT: Iquitos, Peru
    SPQT 191200Z VRB02KT 9999 SCT003 SCT100 25/25 Q1013 NOSIG RMK BIRD HAZARD RWY 06/24 TN24.0 PP000
  • SPSO: Pisco, Peru
    SPSO 191200Z 09005KT 8000 FEW016 15/14 Q1014 RMK TN14.7 BIRD HAZARD RWY 22/04 PP000
    SPSO 191300Z 07003KT 040V100 8000 NSC 18/16 Q1014 RMK BIRD HAZARD RWY 22/04 PP000
    SPSO 191400Z 04003KT 340V100 9999 FEW015 20/16 Q1014 RMK BIRD HAZARD RWY 22/04 PP000
    SPSO 191500Z 29007KT 9999 FEW015 20/16 Q1014 RMK BIRD HAZARD RWY 22/04 PP000
  • SPTU: Puerto Maldonado, Peru
    SPTU 191200Z 13005KT 080V170 9999 OVC010 20/19 Q1017 RMK TN19.3 BIRD HAZARD RWY 01/19 PP000
    SPTU 191300Z 13006G17KT 080V170 9999 OVC012 20/18 Q1018 RMK BIRD HAZARD RWY 01/19 PP000
    SPTU 191400Z 12006KT 090V170 9999 OVC015 20/17 Q1018 RMK BIRD HAZARD RWY 01/19 PP000
    SPTU 191500Z 12004KT 050V190 9999 BKN011 OVC015 20/18 Q1019 RMK BIRD HAZARD RWY 01/19 PP000
  • SPUR: Piura, Peru
    SPUR 191200Z 16008KT 9999 OVC010 20/17 Q1013 RMK BIRD HAZARD RWY 19/01 TN.18.7 PP000
    SPUR 191300Z 15007KT 9999 SCT008 SCT011 20/17 Q1014 RMK BIRD HAZARD RWY 19/01 PP000
    SPUR 191400Z 16008KT 9999 SCT009 BKN012 20/17 Q1014 RMK BIRD HAZARD RWY 19/01 PP000
    SPUR 191500Z 15007KT 9999 SCT012 BKN015 21/17 Q1015 RMK BIRD HAZARD RWY 19/01 PP000
  • SPYL: Talara, Peru
    SPYL 191200Z /////KT 9999 SCT030 19/18 Q1012 RMK TN16.2 BIRD HAZARD RWY 17/35 PP000
    SPYL 191300Z /////KT 9999 SCT040 20/18 Q1012 RMK BIRD HAZARD RWY 17/35 PP000
    SPYL 191400Z /////KT 9999 SCT040 22/18 Q1013 RMK BIRD HAZARD RWY 17/35 PP000
    SPYL 191500Z /////KT 9999 SCT050 22/18 Q1012 RMK BIRD HAZARD RWY 17/35 PP000
  • SPZO: Cuzco, Peru
    SPZO 191200Z VRB02KT 9999 FEW046 SCT100 09/05 Q1036 NOSIG RMK TN4.0 BIRD HAZARD RWY 10/28 PP000
    SPZO 191230Z 08003KT 040V130 9999 FEW046 SCT100 10/06 Q1037 NOSIG RMK BIRD HAZARD RWY 10/28
    SPZO 191300Z 09003KT 040V180 9999 FEW050 SCT100 12/06 Q1037 NOSIG RMK BIRD HAZARD RWY 10/28 PP000
    SPZO 191330Z VRB03KT 9999 SCT060 13/06 Q1037 NOSIG RMK BIRD HAZARD RWY 10/28
    SPZO 191400Z VRB02KT 9999 SCT060 15/07 Q1037 NOSIG RMK BIRD HAZARD RWY 10/28 PP000
    SPZO 191430Z VRB03KT 9999 SCT060 15/05 Q1037 NOSIG RMK BIRD HAZARD RWY 10/28
    SPZO 191500Z 02003KT 310V100 9999 SCT060 16/05 Q1036 NOSIG RMK BIRD HAZARD RWY 10/28 PP000
    SPZO 191530Z 04004KT 330V100 9999 SCT060 16/05 Q1036 NOSIG RMK BIRD HAZARD RWY 10/28
0 stations reporting volcanic ash

1 station reporting ice crystals/diamond dust

  • NZSP: Amundsen-Scott Stn, Antarctica
    NZSP 191150Z 08007KT 9999 IC FEW020 M67/ A2807 RMK CLN AIR 07007KT ALL WNDS GRID
0 stations reporting blowing spray

10 stations reporting dust or duststorm

  • DAOR: Bechar, Algeria
    DAOR 191200Z 20011KT 3000 DU NSC 29/M00 Q1008
  • DAUL: Laghouat, Algeria
    DAUL 191200Z 18008KT 4000 DU NSC 30/11 Q1009
  • LMML: Luqa, Malta
    LMML 191145Z 06015KT 7000 FEW100TCU 22/17 Q1011 NOSIG RMK DU IN SUSPENSION
    LMML 191215Z 04016G27KT 7000 FEW100CB 23/16 Q1011 NOSIG RMK DU IN SUSPENSION
    LMML 191245Z 07016KT 7000 FEW100CB 24/16 Q1010 NOSIG RMK DU IN SUSPENSION
    LMML 191315Z 03014KT 7000 NSC 24/17 Q1012 NOSIG RMK DU IN SUSPENSION
    LMML 191345Z 05015KT 7000 NSC 24/17 Q1010 NOSIG RMK DU IN SUSPENSION
    LMML 191415Z 07016KT 7000 NSC 25/16 Q1010 NOSIG RMK DU IN SUSPENSION
    LMML 191445Z 09017KT 060V120 7000 NSC 24/16 Q1009 NOSIG RMK DU IN SUSPENSION
    LMML 191515Z 08018KT 7000 NSC 24/16 Q1009 NOSIG RMK DU IN SUSPENSION
  • MHLC: La Ceiba Airport, Honduras
    MHLC 191234Z VRB02KT 4000 DU FEW025 28/26 Q1010 A2983 NOSIG
  • MHLM: La Mesa San Pedro Sula, Honduras
    MHLM 191300Z 00000KT 5000 DU FEWW026 BKN080 28/27 Q1011 A2986 NOSIG
  • OEDF: Dammam-King Fahd Intl Arpt, Saudi Arabia
    OEDF 191200Z 36018KT 5000 BLDU NSC 38/06 Q1005 NOSIG
  • OERS: UNKNOWN,
    OERS 191500Z 30018KT 5000 BLDU NSC 39/08 Q1003 NOSIG
  • OIKM: Bam, Iran
    OIKM 191400Z 36012KT 4000 DU FEW045 34/01 Q1007
    OIKM 191500Z 36012KT 4000 DU FEW045 32/01 Q1007
    OIKM 191530Z 36012KT 5000 DU NSC 32/03 Q1008
  • OIZH: Zahedan, Iran
    OIZH 191400Z 02010KT 5000 DU FEW036CB SCT040TCU 27/08 Q1011 A2987 NOSIG
    OIZH 191500Z 04006KT 5000 DU FEW040TCU 26/08 Q1012 A2989 NOSIG
    OIZH 191530Z 04006KT 6000 DU FEW040TCU 25/09 Q1012 A2990
  • VIJP: Jaipur / Sanganer, India
    VIJP 191200Z 27021KT 2000 BLDU SCT030 FEW035CB SCT040 40/11 Q1002
    VIJP 191230Z 30020G30KT 1200 R26/2000 BLDU SCT030 FEW035CB SCT040 36/15 Q1001
    VIJP 191300Z 29015G25KT 1800 BLDU SCT030 FEW035CB SCT040 38/13 Q1002
    VIJP 191330Z 33006KT 2500 DU SCT030 FEW035CB SCT040 38/13 Q1003
    VIJP 191331Z 33006KT 2500 DU SCT030 FEW035CB SCT040 38/13 Q1003
    VIJP 191400Z 05004KT 3000 DU SCT030 BKN100 38/12 Q1003 NOSIG
    VIJP 191430Z 09006KT 3000 DU SCT030 BKN100 37/14 Q1003 NOSIG
    VIJP 191500Z 08008KT 3000 DU SCT030 SCT100 37/12 Q1003 NOSIG
7 stations reporting sand or sandstorm

  • DTTD: Remada, Tunisia
    DTTD 191200Z 26012KT 200V290 4000 SA NSC 41/02 Q1007 RMK SIROCCO
    DTTD 191300Z 25016G27KT 210V300 4000 SA NSC 42/M01 Q1006 RMK SIROCCO
  • DTTG: Gabes, Tunisia
    DTTG 191200Z 06015KT 3000 SA FEW030 29/16 Q1007 NOSIG
    DTTG 191300Z 07017KT 3000 SA FEW030 28/17 Q1007 NOSIG
    DTTG 191400Z 07017KT 3000 SA FEW030 28/17 Q1007 NOSIG
    DTTG 191500Z 07018KT 3000 SA FEW030 26/17 Q1007 NOSIG
  • DTTJ: Djerba Mellita, Tunisia
    DTTJ 191200Z 04025KT 4000 SA NSC 25/19 Q1007 NOSIG
    DTTJ 191230Z 04023KT 4000 SA NSC 25/19 Q1006 NOSIG
    DTTJ 191300Z 05024KT 4000 SA NSC 24/19 Q1006 NOSIG
    DTTJ 191330Z 05022KT 4000 SA NSC 24/19 Q1006 NOSIG
    DTTJ 191400Z 04019KT 4000 SA NSC 24/19 Q1006 NOSIG
    DTTJ 191430Z 04018KT 4000 SA NSC 24/19 Q1006 NOSIG
    DTTJ 191500Z 05015KT 4000 SA NSC 24/19 Q1006 NOSIG
    DTTJ 191530Z 05015KT 4000 SA NSC 24/19 Q1006 NOSIG
  • HETR: El Tor, Egypt
    HETR 191200Z 30023KT 1500 R28R/1500 SA NSC 32/15 Q1006
    HETR 191300Z 30025KT 1200 R28R/1200 SA NSC 33/14 Q1005
    HETR 191400Z 31024KT 1200 R28R/1200 SA NSC 32/15 Q1005
  • OIKQ: Gheshm Island / Dayrestan, Iran
    OIKQ 191200Z 23018KT 4000 SA NSC 32/27 Q1002 NOSIG
    OIKQ 191300Z 24018KT 4000 SA NSC 31/26 Q1001 NOSIG
    OIKQ 191400Z 24016KT 4500 SA NSC 30/26 Q1001 NOSIG
    OIKQ 191500Z 25016KT 4500 SA NSC 29/25 Q1001 NOSIG
  • OIZB: Zabol, Iran
    OIZB 191200Z 35031KT 4000 SA NSC 31/10 Q1005
    OIZB 191300Z 35031G41KT 3500 SA NSC 29/10 Q1005
    OIZB 191500Z 35031G41KT 5000 SA NSC 25/10 Q1005
  • OIZH: Zahedan, Iran
    OIZH 191200Z 04014KT 4000 SA BKN040TCU 28/08 Q1011 A2986
1 station reporting well-developed dust/sand whirls

  • OIMB: Birjand, Iran
    OIMB 191200Z 01010KT 9999 PO SCT035 29/03 Q1012 A2989
20 stations reporting smoke

  • CYEG: Edmonton International, Alta., Canada
    CYEG 191517Z 28012G18KT 12SM -SHRA BKN025 OVC041 07/02 A2984 RMK SC6SC2 FU CVCTV CLD EMBD SUN DIMLY VISBL SLP126
  • KIND: Indianapolis, Indianapolis Intl Arpt, IN, United States
    KIND 191154Z 25003KT 10SM FU SCT010 19/17 A3001 RMK AO2 SLP156 FU S-W T01940167 10200 20167 53016
  • MGCB: Coban, Guatemala
    MGCB 191400Z 27004KT 7000 SCT200 22/19 QFE871.2 FU
    MGCB 191500Z 11004KT 8000 BKN080 24/19 QFE 870.0 FU
  • MGPB: Puerto Barrios, Guatemala
    MGPB 191400Z 00000KT 4000 FU SCT018 BKN090 30/24 Q1010 A2983
    MGPB 191500Z 30006KT 4000 FU FEW018 SCT080 30/25 Q1010 A2983
  • MHCA: Catacamas, Honduras
    MHCA 191200Z 00000KT 5000 FU SCT030 25/21 Q1014
    MHCA 191300Z 00000KT 5000 FU SCT030 27/21 Q1015
    MHCA 191400Z 00000KT 5000 FU SCT030 29/21 Q1015
    MHCA 191500Z 00000KT 5000 FU SCT030 31/21 Q1015
  • MHLC: La Ceiba Airport, Honduras
    MHLC 191200Z COR 17003KT 4000 2000W FU FEW020 26/25 Q1010 A2983 NOSIG
    MHLC 191300Z VRB02KT 4000 FU FEW025 29/27 Q1011 A2986 NOSIG
    MHLC 191321Z VRB02KT 4000 FU FEW025 31/26 Q1011 A2986 NOSIG
    MHLC 191400Z VRB02KT 4000 FU FEW025 31/25 Q1011 A2986 NOSIG
    MHLC 191500Z 34004KT 5000 FU FEW025 32/25 Q1011 A2985 NOSIG
  • MHLM: La Mesa San Pedro Sula, Honduras
    MHLM 191200Z BRV02KT 5000 FU FEW025 SCT090 27/27 Q1010 A2983 NOSIG
    MHLM 191200Z COR VRB02KT 5000 FU FEW025 SCT090 27/27 Q1010 A2983 NOSIG
    MHLM 191300Z 00000KT 5000 FU FEW026 BKN080 28/27 Q1011 A2986 NOSIG
  • MHRO: Roatan, Honduras
    MHRO 191200Z 10006KT 1000 FU NSC 29/25 Q1010 A2983 NOSIG
    MHRO 191300Z VRB01KT 0800 FU FEW020 30/26 Q1011 A2986 NOSIG
    MHRO 191400Z 15003KT 0800 FU FEW020 32/27 Q1011 A2986 NOSIG
    MHRO 191500Z 17004KT 1000 FU FEW020 32/28 Q1011 A2985 NOSIG
  • MHTE: Tela, Honduras
    MHTE 191300Z 00000KT 7000 4000SW FU NSC 30/27 Q1008 A2977
    MHTE 191400Z VRB02KT 7000 4000SW FU NSC 31/26 Q1008 A2977
    MHTE 191500Z 00000KT 7000 4000SW FU NSC 33/27 Q1008 A2977
  • MHTG: Tegucigalpa, Honduras
    MHTG 191200Z 00000KT 9999 5000W FU FEW032 19/18 Q1019 A3009 NOSIG
    MHTG 191300Z 00000KT 8000 4000 SW FU FEW032 22/19 A1020 A3012 NOSIG
    MHTG 191300Z 00000KT 8000 4000SW FU FEW032 22/19 A1020 A3012 NOSIG
    MHTG 191300Z 00000KT 8000 4000W FU FEW032 22/19 Q1020 A3012 NOSIG
    MHTG 191300Z COR 00000KT 8000 4000 SW FU FEW032 22/19 A1020 A3012 NOSIG
    MHTG 191345Z 00000KT 8000 4000W FU FEW032 24/19 Q1019 A3009 NOSIG
    MHTG 191400Z 00000KT 8000 4000W FU FEW032 25/19 Q1020 A3012 NOSIG
    MHTG 191500Z 32004KT 9999 5000W FU FEW032 27/18 Q1019 A3009 NOSIG
  • MHTR: Trujillo, Honduras
    MHTR 191200Z 00000KT 5000 FU FEW024 27/24
    MHTR 191300Z 00000KT 4000 FU FEW025 29/24
    MHTR 191400Z 00000KT 4000 FU FEW024 31/25
    MHTR 191500Z 00000KT 4000 FU FEW022 32/26
  • MMCB: Cuernavaca, Mor., Mexico
    MMCB 191341Z 00000KT 4SM SKC 24/13 A3012 RMK FU W HZY
  • MMGA: UNKNOWN,
    MMGA 191307Z RTD E34003KT 10SM SKC ///// A//// RMK FU S RTS
    MMGA 191340Z E34003KT 10SM SKC ///// A//// RMK FU S
    MMGA 191440Z E00000KT 10SM SKC ///// A//// RMK SLP/// 5//// 9// FU SE
  • MMMZ: Mazatlan / G. Buelna, Mexico
    MMMZ 191242Z 00000KT 10SM SKC 19/18 A2987 RMK FULYR 3RD QUAD HZY
  • MMVA: Villahermosa, Mexico
    MMVA 191446Z 07009KT 4SM SCT017 BKN070 28/24 A2991 RMK SLP130 52044 935 8/510 FU AND HZY
  • MNRS: Rivas, Nicaragua
    MNRS 191200Z 00000KT 9000 FEW015CB 28/25 Q1009 FU CB/S
    MNRS 191300Z 00000KT 9000 FEW015CB BKN016 30/25 Q1010 FU CB/S
    MNRS 191400Z 10004KT 9000 FEW015CB BKN016TCU 30/25 Q1011 CB/S TCU/NE/E/SE/SW/W FU
    MNRS 191500Z 36004KT 9000 FEW015CB BKN016TCU 31/26 Q1011 CB/S TCU/NE/E/SE/SW FU
  • MZBZ: Goldston Intl. Airport, Belize
    MZBZ 191200Z 09004KT 9000 FEW018 29/27 A2985 Q1010 NOSIG RMK HZ FU
    MZBZ 191300Z 09005KT 8000 SCT020 30/27 A2986 Q1011 NOSIG RMK HZ FU
    MZBZ 191400Z 10007KT 9000 BKN020 30/27 A2986 Q1011 NOSIG RMK HZ FU
  • UNEE: Kemerovo, Russia
    UNEE 191530Z 29002MPS 3300 BR FU SCT035 12/12 Q1010 R23/290155 NOSIG RMK QFE735
  • VAAH: Ahmadabad, India
    VAAH 191400Z 29004KT 5000 FU NSC 40/07 Q0998 NOSIG
    VAAH 191430Z 28004KT 5000 FU NSC 39/08 Q0999
    VAAH 191500Z 29004KT 4000 FU NSC 39/09 Q0999 NOSIG
    VAAH 191530Z 28004KT 4000 FU NSC 38/09 Q0999 NOSIG
  • VABO: Vadodara, India
    VABO 191430Z 28003KT 5000 FU NSC 39/19 Q0999
    VABO 191500Z 27003KT 4000 FU NSC 38/19 Q0999
    VABO 191530Z 29003KT 3000 FU NSC 38/20 Q0999 NOSIG


Stations falling into 5 or more extreme categories

Stations falling into 4 extreme categories

Stations falling into 3 extreme categories

  • MHLC: La Ceiba Airport, Honduras
        Dewpoint, Dust/Duststorm, Smoke
  • MHLM: La Mesa San Pedro Sula, Honduras
        Dewpoint, Dust/Duststorm, Smoke
  • VVVD: Vo Dat, Vietnam
        Dewpoint, Hail, Thunderstorm
Stations falling into 2 extreme categories

  • DTTD: Remada, Tunisia
        Temperature, Sand/Sandstorm
  • EDDR: Saarbruecken / Ensheim, Germany
        Hail, Thunderstorm
  • ETAD: Spangdahlem, Germany
        Precipitation Type/Intensity, Thunderstorm
  • K4M9: Corning, AR, United States
        Dewpoint, Visibility
  • KEBG: Edinburg, Edinburg Intl Arpt, TX, United States
        Dewpoint, Visibility
  • KHRL: Harlingen, Rio Grande Valley Intl Arpt, TX, United States
        Dewpoint, Visibility
  • KIKG: Kingsville, TX, United States
        Dewpoint, Visibility
  • KLNK: Lincoln, Lincoln Municipal Airport, NE, United States
        Wind, Thunderstorm
  • KMCK: McCook, McCook Municipal Airport, NE, United States
        Hourly Precip Total, Thunderstorm
  • KMLE: Omaha, Millard Airport, NE, United States
        Precipitation Type/Intensity, Thunderstorm
  • KTXW: Weslaco, TX, United States
        Dewpoint, Visibility
  • MHRO: Roatan, Honduras
        Dewpoint, Smoke
  • MHTE: Tela, Honduras
        Dewpoint, Smoke
  • MHTR: Trujillo, Honduras
        Dewpoint, Smoke
  • MMMA: Matamoros International, Mexico
        Dewpoint, Visibility
  • MNRS: Rivas, Nicaragua
        Dewpoint, Smoke
  • MPBO: Bocas Del Toro International, Panama
        Dewpoint, Thunderstorm
  • MZBZ: Goldston Intl. Airport, Belize
        Dewpoint, Smoke
  • NGTA: Tarawa, Kiribati
        Dewpoint, Precipitation Type/Intensity
  • NZSP: Amundsen-Scott Stn, Antarctica
        Temperature, Ice Crystals/Diamond Dust
  • OERS: UNKNOWN,
        Temperature, Dust/Duststorm
  • OIKQ: Gheshm Island / Dayrestan, Iran
        Dewpoint, Sand/Sandstorm
  • OIZB: Zabol, Iran
        Wind, Sand/Sandstorm
  • OIZH: Zahedan, Iran
        Dust/Duststorm, Sand/Sandstorm
  • SBFN: Fernando De Noronha, Brazil
        Dewpoint, Precipitation Type/Intensity
  • SPHY: Andahuayla, Peru
        Pressure, Bird Hazard
  • SPQT: Iquitos, Peru
        Dewpoint, Bird Hazard
  • SPZO: Cuzco, Peru
        Pressure, Bird Hazard
  • VAAH: Ahmadabad, India
        Temperature, Smoke
  • VABO: Vadodara, India
        Temperature, Smoke
  • VEBS: Bhubaneswar, India
        Dewpoint, Thunderstorm
  • VEGT: Gauhati, India
        Dewpoint, Thunderstorm
  • VIJP: Jaipur / Sanganer, India
        Temperature, Dust/Duststorm
  • VOGO: Goa/dabolim, India
        Dewpoint, Thunderstorm
  • VOKN: Kannur Intl, India
        Dewpoint, Thunderstorm
  • VORY: Rajahmundry Airport, India
        Dewpoint, Thunderstorm
  • VOTR: Tiruchchirapalli, India
        Dewpoint, Thunderstorm
  • VTBD: Don Muang, Thailand
        Dewpoint, Thunderstorm
  • VTBS: Chon Buri, Thailand
        Dewpoint, Thunderstorm
  • VTSG: Krabi, Thailand
        Dewpoint, Thunderstorm
  • VTSM: Samui, Thailand
        Dewpoint, Thunderstorm
  • VVCR: Cam Ranh Bay, Viet Nam
        Dewpoint, Thunderstorm
  • WAYY: Timika, Indonesia
        Dewpoint, Thunderstorm
  • WMKI: Ipoh, Malaysia
        Dewpoint, Thunderstorm
  • YPCC: Cocos Island Airport, Christmas Island
        Dewpoint, Precipitation Type/Intensity


87 unidentified stations (out of a total of 165 documented unknown stations)

  • ENUN (OLD)
  • EQYE (OLD)
  • EQYF (OLD)
  • EQYT (OLD)
  • EQYV (OLD)
  • FCOD (NEW)
  • HESX (NEW)
  • HKGO (OLD)
  • HTIB (OLD)
  • K0D8 (NEW)
  • K0W3 (NEW)
  • K10U (NEW)
  • K1D8 (NEW)
  • K1K8 (NEW)
  • K2M8 (NEW)
  • K2R2 (NEW)
  • K3K7 (NEW)
  • K3W7 (NEW)
  • K42A (NEW)
  • K49B (NEW)
  • K4B8 (NEW)
  • K60R (NEW)
  • K8V7 (NEW)
  • K9Y1 (NEW)
  • KACZ (NEW)
  • KANR (NEW)
  • KBFA (NEW)
  • KC08 (NEW)
  • KCPP (NEW)
  • KCSB (NEW)
  • KD09 (NEW)
  • KDRP (NEW)
  • KE57 (NEW)
  • KE77 (NEW)
  • KETO (NEW)
  • KFOM (NEW)
  • KGDK (NEW)
  • KHVC (NEW)
  • KI40 (NEW)
  • KI95 (NEW)
  • KK83 (NEW)
  • KMCZ (NEW)
  • KMKQ (NEW)
  • KN79 (NEW)
  • KOYE (NEW)
  • KQA8 (OLD)
  • KQAL (OLD)
  • KQB3 (OLD)
  • KQD3 (OLD)
  • KQEK (OLD)
  • KQEO (OLD)
  • KQFL (OLD)
  • KQGE (OLD)
  • KQHB (OLD)
  • KQHC (OLD)
  • KQRD (OLD)
  • KQX2 (OLD)
  • KQXH (OLD)
  • KSBX (NEW)
  • KTQV (OLD)
  • KU64 (NEW)
  • KVGN (NEW)
  • LETU (OLD)
  • LIRY (NEW)
  • LRBV (NEW)
  • LTFO (OLD)
  • MGMT (OLD)
  • MGTU (OLD)
  • MMGA (NEW)
  • NZQN (NEW)
  • OEMN (NEW)
  • OERS (NEW)
  • OICM (OLD)
  • OKKK (NEW)
  • PACX (NEW)
  • PANU (NEW)
  • PAPE (NEW)
  • PFKO (NEW)
  • PFTO (NEW)
  • PFZK (NEW)
  • UBBZ (NEW)
  • VAHS (NEW)
  • VDSA (NEW)
  • VEAY (NEW)
  • VOGA (NEW)
  • WILL (NEW)
  • YBSU (NEW)